PWSweather.com
Personal Weather Stations
Station Observations
KNYISLAN6
Islandia, NY

Islandia, NY

Lat: 40.802, Lon: -73.192

Elevation: 100

Station Type: Ambient Weather WS-2902A

Latest ConditionsUpdated 12:48:00 PM EST Tuesday, Jan 22, 2019
Currently Today's Max Today's Min Today's Average
Temperature 28.0°F-2.2°C 28.9°F-1.7°C 12.7°F-10.7°C 17.8°F-7.9°C
Dew Point 6.3°F-14.3°C 9.0°F-12.8°C 2.5°F-16.4°C 5.0°F-15.0°C
Winds 1.3 mph NE2.1 kmh NE 8.7 mph -14.0 kmh - - 1.9 mph 3.1 kmh
Wind Gusts 2.2 mph3.5 kmh 12.5 mph20.1 kmh - -
Humidity 39% 68% 36% 58%
Pressure 30.60 in1036.2 mb 30.63 in1037.3 mb 30.34 in1027.4 mb -
Hour Temp Dew Point Humidity Winds Wind Gusts Pressure Precip Precip Rate Daily Precip Total
12:48 PM 28.0°F-2.2°C 6.3°F-14.3°C 39% 1.3 mph NE2.1 kmh NE 2.2 mph3.5 kmh 30.60 in1036.2 mb 0.00 in0.0 mm 0.00 in0.0 mm 0.00 in0.0 mm
12:47 PM 28.0°F-2.2°C 5.7°F-14.6°C 38% 1.6 mph SW2.6 kmh SW 2.2 mph3.5 kmh 30.60 in1036.2 mb 0.00 in0.0 mm 0.00 in0.0 mm 0.00 in0.0 mm
12:46 PM 27.9°F-2.3°C 5.0°F-15.0°C 37% 2.5 mph W4.0 kmh W 3.4 mph5.5 kmh 30.60 in1036.2 mb 0.00 in0.0 mm 0.00 in0.0 mm 0.00 in0.0 mm
12:45 PM 27.7°F-2.4°C 4.3°F-15.4°C 36% 3.1 mph W5.0 kmh W 3.4 mph5.5 kmh 30.60 in1036.2 mb 0.00 in0.0 mm 0.00 in0.0 mm 0.00 in0.0 mm
12:44 PM 27.7°F-2.4°C 4.3°F-15.4°C 36% 1.6 mph W2.6 kmh W 2.2 mph3.5 kmh 30.59 in1035.9 mb 0.00 in0.0 mm 0.00 in0.0 mm 0.00 in0.0 mm
12:43 PM 27.5°F-2.5°C 4.7°F-15.2°C 37% 0.9 mph W1.4 kmh W 2.2 mph3.5 kmh 30.61 in1036.6 mb 0.00 in0.0 mm 0.00 in0.0 mm 0.00 in0.0 mm
12:42 PM 27.7°F-2.4°C 4.9°F-15.1°C 37% 2.9 mph WNW4.7 kmh WNW 3.4 mph5.5 kmh 30.60 in1036.2 mb 0.00 in0.0 mm 0.00 in0.0 mm 0.00 in0.0 mm
12:41 PM 27.9°F-2.3°C 4.4°F-15.3°C 36% 5.4 mph W8.7 kmh W 5.8 mph9.3 kmh 30.60 in1036.2 mb 0.00 in0.0 mm 0.00 in0.0 mm 0.00 in0.0 mm
12:40 PM 28.0°F-2.2°C 4.5°F-15.3°C 36% 2.7 mph W4.3 kmh W 3.4 mph5.5 kmh 30.61 in1036.6 mb 0.00 in0.0 mm 0.00 in0.0 mm 0.00 in0.0 mm
12:39 PM 28.0°F-2.2°C 5.1°F-14.9°C 37% 3.6 mph W5.8 kmh W 4.5 mph7.2 kmh 30.61 in1036.6 mb 0.00 in0.0 mm 0.00 in0.0 mm 0.00 in0.0 mm
12:38 PM 28.2°F-2.1°C 4.7°F-15.2°C 36% 5.8 mph W9.3 kmh W 6.9 mph11.1 kmh 30.61 in1036.6 mb 0.00 in0.0 mm 0.00 in0.0 mm 0.00 in0.0 mm
12:37 PM 28.4°F-2.0°C 6.1°F-14.4°C 38% 2.9 mph WNW4.7 kmh WNW 6.9 mph11.1 kmh 30.60 in1036.2 mb 0.00 in0.0 mm 0.00 in0.0 mm 0.00 in0.0 mm
12:36 PM 28.2°F-2.1°C 5.9°F-14.5°C 38% 0.2 mph WSW0.3 kmh WSW 1.1 mph1.8 kmh 30.61 in1036.6 mb 0.00 in0.0 mm 0.00 in0.0 mm 0.00 in0.0 mm
12:35 PM 28.0°F-2.2°C 5.7°F-14.6°C 38% 2.2 mph W3.5 kmh W 4.5 mph7.2 kmh 30.60 in1036.2 mb 0.00 in0.0 mm 0.00 in0.0 mm 0.00 in0.0 mm
12:34 PM 28.0°F-2.2°C 4.5°F-15.3°C 36% 1.1 mph SE1.8 kmh SE 1.1 mph1.8 kmh 30.60 in1036.2 mb 0.00 in0.0 mm 0.00 in0.0 mm 0.00 in0.0 mm
12:33 PM 27.9°F-2.3°C 5.6°F-14.7°C 38% 0.7 mph SSE1.1 kmh SSE 1.1 mph1.8 kmh 30.61 in1036.6 mb 0.00 in0.0 mm 0.00 in0.0 mm 0.00 in0.0 mm
12:32 PM 27.9°F-2.3°C 5.6°F-14.7°C 38% 1.1 mph SSW1.8 kmh SSW 1.1 mph1.8 kmh 30.60 in1036.2 mb 0.00 in0.0 mm 0.00 in0.0 mm 0.00 in0.0 mm
12:31 PM 28.0°F-2.2°C 5.7°F-14.6°C 38% 3.1 mph S5.0 kmh S 4.5 mph7.2 kmh 30.61 in1036.6 mb 0.00 in0.0 mm 0.00 in0.0 mm 0.00 in0.0 mm
12:30 PM 28.6°F-1.9°C 5.7°F-14.6°C 37% 4.5 mph WNW7.2 kmh WNW 5.8 mph9.3 kmh 30.60 in1036.2 mb 0.00 in0.0 mm 0.00 in0.0 mm 0.00 in0.0 mm
12:28 PM 28.8°F-1.8°C 6.4°F-14.2°C 38% 3.4 mph W5.5 kmh W 4.5 mph7.2 kmh 30.60 in1036.2 mb 0.00 in0.0 mm 0.00 in0.0 mm 0.00 in0.0 mm
12:27 PM 28.9°F-1.7°C 5.9°F-14.5°C 37% 5.4 mph W8.7 kmh W 6.9 mph11.1 kmh 30.60 in1036.2 mb 0.00 in0.0 mm 0.00 in0.0 mm 0.00 in0.0 mm
12:26 PM 28.9°F-1.7°C 5.3°F-14.8°C 36% 0.9 mph W1.4 kmh W 1.1 mph1.8 kmh 30.60 in1036.2 mb 0.00 in0.0 mm 0.00 in0.0 mm 0.00 in0.0 mm
12:25 PM 28.9°F-1.7°C 5.3°F-14.8°C 36% 3.6 mph W5.8 kmh W 4.5 mph7.2 kmh 30.59 in1035.9 mb 0.00 in0.0 mm 0.00 in0.0 mm 0.00 in0.0 mm
12:24 PM 28.6°F-1.9°C 5.1°F-14.9°C 36% 1.1 mph SSE1.8 kmh SSE 1.1 mph1.8 kmh 30.60 in1036.2 mb 0.00 in0.0 mm 0.00 in0.0 mm 0.00 in0.0 mm
12:23 PM 28.4°F-2.0°C 4.9°F-15.1°C 36% 0.4 mph SSE0.6 kmh SSE 1.1 mph1.8 kmh 30.60 in1036.2 mb 0.00 in0.0 mm 0.00 in0.0 mm 0.00 in0.0 mm
12:22 PM 28.2°F-2.1°C 5.3°F-14.8°C 37% 0.7 mph SW1.1 kmh SW 1.1 mph1.8 kmh 30.59 in1035.9 mb 0.00 in0.0 mm 0.00 in0.0 mm 0.00 in0.0 mm
12:21 PM 27.9°F-2.3°C 5.0°F-15.0°C 37% 1.3 mph W2.1 kmh W 2.2 mph3.5 kmh 30.60 in1036.2 mb 0.00 in0.0 mm 0.00 in0.0 mm 0.00 in0.0 mm
12:20 PM 27.7°F-2.4°C 4.3°F-15.4°C 36% 2.0 mph W3.2 kmh W 3.4 mph5.5 kmh 30.59 in1035.9 mb 0.00 in0.0 mm 0.00 in0.0 mm 0.00 in0.0 mm
12:19 PM 27.5°F-2.5°C 6.9°F-13.9°C 41% 1.3 mph NW2.1 kmh NW 2.2 mph3.5 kmh 30.59 in1035.9 mb 0.00 in0.0 mm 0.00 in0.0 mm 0.00 in0.0 mm
12:18 PM 27.5°F-2.5°C 6.4°F-14.2°C 40% 2.7 mph WNW4.3 kmh WNW 3.4 mph5.5 kmh 30.59 in1035.9 mb 0.00 in0.0 mm 0.00 in0.0 mm 0.00 in0.0 mm
12:17 PM 27.5°F-2.5°C 5.8°F-14.6°C 39% 3.4 mph W5.5 kmh W 4.5 mph7.2 kmh 30.60 in1036.2 mb 0.00 in0.0 mm 0.00 in0.0 mm 0.00 in0.0 mm
12:16 PM 27.9°F-2.3°C 6.2°F-14.3°C 39% 2.9 mph W4.7 kmh W 4.5 mph7.2 kmh 30.60 in1036.2 mb 0.00 in0.0 mm 0.00 in0.0 mm 0.00 in0.0 mm
12:15 PM 28.0°F-2.2°C 6.3°F-14.3°C 39% 4.3 mph W6.9 kmh W 5.8 mph9.3 kmh 30.60 in1036.2 mb 0.00 in0.0 mm 0.00 in0.0 mm 0.00 in0.0 mm
12:14 PM 28.2°F-2.1°C 6.5°F-14.2°C 39% 3.8 mph W6.1 kmh W 4.5 mph7.2 kmh 30.59 in1035.9 mb 0.00 in0.0 mm 0.00 in0.0 mm 0.00 in0.0 mm
12:13 PM 28.4°F-2.0°C 6.6°F-14.1°C 39% 2.9 mph WNW4.7 kmh WNW 3.4 mph5.5 kmh 30.60 in1036.2 mb 0.00 in0.0 mm 0.00 in0.0 mm 0.00 in0.0 mm
12:12 PM 28.4°F-2.0°C 5.5°F-14.7°C 37% 3.4 mph W5.5 kmh W 4.5 mph7.2 kmh 30.60 in1036.2 mb 0.00 in0.0 mm 0.00 in0.0 mm 0.00 in0.0 mm
12:11 PM 28.4°F-2.0°C 6.1°F-14.4°C 38% 2.5 mph W4.0 kmh W 3.4 mph5.5 kmh 30.59 in1035.9 mb 0.00 in0.0 mm 0.00 in0.0 mm 0.00 in0.0 mm
12:10 PM 28.2°F-2.1°C 5.9°F-14.5°C 38% 2.0 mph W3.2 kmh W 3.4 mph5.5 kmh 30.60 in1036.2 mb 0.00 in0.0 mm 0.00 in0.0 mm 0.00 in0.0 mm
12:09 PM 28.2°F-2.1°C 5.9°F-14.5°C 38% 1.3 mph S2.1 kmh S 2.2 mph3.5 kmh 30.60 in1036.2 mb 0.00 in0.0 mm 0.00 in0.0 mm 0.00 in0.0 mm
12:08 PM 28.4°F-2.0°C 6.1°F-14.4°C 38% 2.9 mph WNW4.7 kmh WNW 3.4 mph5.5 kmh 30.60 in1036.2 mb 0.00 in0.0 mm 0.00 in0.0 mm 0.00 in0.0 mm
12:07 PM 28.6°F-1.9°C 6.8°F-14.0°C 39% 2.2 mph WSW3.5 kmh WSW 2.2 mph3.5 kmh 30.59 in1035.9 mb 0.00 in0.0 mm 0.00 in0.0 mm 0.00 in0.0 mm
12:06 PM 28.6°F-1.9°C 5.7°F-14.6°C 37% 3.8 mph E6.1 kmh E 4.5 mph7.2 kmh 30.59 in1035.9 mb 0.00 in0.0 mm 0.00 in0.0 mm 0.00 in0.0 mm
12:05 PM 28.6°F-1.9°C 5.1°F-14.9°C 36% 0.2 mph W0.3 kmh W 1.1 mph1.8 kmh 30.59 in1035.9 mb 0.00 in0.0 mm 0.00 in0.0 mm 0.00 in0.0 mm
12:03 PM 28.2°F-2.1°C 5.3°F-14.8°C 37% 2.5 mph WSW4.0 kmh WSW 3.4 mph5.5 kmh 30.60 in1036.2 mb 0.00 in0.0 mm 0.00 in0.0 mm 0.00 in0.0 mm
12:02 PM 27.9°F-2.3°C 6.7°F-14.1°C 40% Calm Calm -- 30.60 in1036.2 mb 0.00 in0.0 mm 0.00 in0.0 mm 0.00 in0.0 mm
12:01 PM 27.5°F-2.5°C 5.3°F-14.8°C 38% 1.3 mph W2.1 kmh W 2.2 mph3.5 kmh 30.60 in1036.2 mb 0.00 in0.0 mm 0.00 in0.0 mm 0.00 in0.0 mm
11:59 AM 27.1°F-2.7°C 5.5°F-14.7°C 39% 1.8 mph W2.9 kmh W 2.2 mph3.5 kmh 30.60 in1036.2 mb 0.00 in0.0 mm 0.00 in0.0 mm 0.00 in0.0 mm
11:58 AM 27.0°F-2.8°C 4.8°F-15.1°C 38% 0.4 mph SSW0.6 kmh SSW 1.1 mph1.8 kmh 30.59 in1035.9 mb 0.00 in0.0 mm 0.00 in0.0 mm 0.00 in0.0 mm
11:56 AM 27.3°F-2.6°C 5.6°F-14.7°C 39% 2.2 mph W3.5 kmh W 3.4 mph5.5 kmh 30.59 in1035.9 mb 0.00 in0.0 mm 0.00 in0.0 mm 0.00 in0.0 mm
11:55 AM 27.5°F-2.5°C 5.8°F-14.6°C 39% 2.9 mph W4.7 kmh W 4.5 mph7.2 kmh 30.60 in1036.2 mb 0.00 in0.0 mm 0.00 in0.0 mm 0.00 in0.0 mm
11:54 AM 27.9°F-2.3°C 6.2°F-14.3°C 39% 4.3 mph WSW6.9 kmh WSW 5.8 mph9.3 kmh 30.60 in1036.2 mb 0.00 in0.0 mm 0.00 in0.0 mm 0.00 in0.0 mm
11:53 AM 28.2°F-2.1°C 6.5°F-14.2°C 39% 4.5 mph WSW7.2 kmh WSW 5.8 mph9.3 kmh 30.60 in1036.2 mb 0.00 in0.0 mm 0.00 in0.0 mm 0.00 in0.0 mm
11:52 AM 28.2°F-2.1°C 6.5°F-14.2°C 39% 0.9 mph WNW1.4 kmh WNW 1.1 mph1.8 kmh 30.59 in1035.9 mb 0.00 in0.0 mm 0.00 in0.0 mm 0.00 in0.0 mm
11:51 AM 28.0°F-2.2°C 5.7°F-14.6°C 38% 2.7 mph W4.3 kmh W 3.4 mph5.5 kmh 30.60 in1036.2 mb 0.00 in0.0 mm 0.00 in0.0 mm 0.00 in0.0 mm
11:50 AM 27.9°F-2.3°C 5.6°F-14.7°C 38% 2.9 mph NW4.7 kmh NW 4.5 mph7.2 kmh 30.60 in1036.2 mb 0.00 in0.0 mm 0.00 in0.0 mm 0.00 in0.0 mm
11:49 AM 27.5°F-2.5°C 5.3°F-14.8°C 38% 0.9 mph SE1.4 kmh SE 3.4 mph5.5 kmh 30.60 in1036.2 mb 0.00 in0.0 mm 0.00 in0.0 mm 0.00 in0.0 mm
11:48 AM 27.3°F-2.6°C 6.7°F-14.1°C 41% 0.7 mph W1.1 kmh W 1.1 mph1.8 kmh 30.60 in1036.2 mb 0.00 in0.0 mm 0.00 in0.0 mm 0.00 in0.0 mm
11:47 AM 27.3°F-2.6°C 6.2°F-14.3°C 40% 0.9 mph ESE1.4 kmh ESE 1.1 mph1.8 kmh 30.59 in1035.9 mb 0.00 in0.0 mm 0.00 in0.0 mm 0.00 in0.0 mm
11:45 AM 27.7°F-2.4°C 6.0°F-14.4°C 39% 2.9 mph SE4.7 kmh SE 3.4 mph5.5 kmh 30.60 in1036.2 mb 0.00 in0.0 mm 0.00 in0.0 mm 0.00 in0.0 mm
11:44 AM 27.7°F-2.4°C 5.4°F-14.8°C 38% 1.1 mph ESE1.8 kmh ESE 1.1 mph1.8 kmh 30.60 in1036.2 mb 0.00 in0.0 mm 0.00 in0.0 mm 0.00 in0.0 mm
11:43 AM 27.7°F-2.4°C 6.0°F-14.4°C 39% 1.3 mph SE2.1 kmh SE 2.2 mph3.5 kmh 30.60 in1036.2 mb 0.00 in0.0 mm 0.00 in0.0 mm 0.00 in0.0 mm
11:42 AM 27.9°F-2.3°C 6.7°F-14.1°C 40% 1.8 mph SW2.9 kmh SW 2.2 mph3.5 kmh 30.60 in1036.2 mb 0.00 in0.0 mm 0.00 in0.0 mm 0.00 in0.0 mm
11:41 AM 27.7°F-2.4°C 6.6°F-14.1°C 40% 0.7 mph NE1.1 kmh NE 2.2 mph3.5 kmh 30.60 in1036.2 mb 0.00 in0.0 mm 0.00 in0.0 mm 0.00 in0.0 mm
11:40 AM 27.5°F-2.5°C 6.4°F-14.2°C 40% 1.1 mph E1.8 kmh E 2.2 mph3.5 kmh 30.61 in1036.6 mb 0.00 in0.0 mm 0.00 in0.0 mm 0.00 in0.0 mm
11:39 AM 27.3°F-2.6°C 5.6°F-14.7°C 39% 1.6 mph E2.6 kmh E 3.4 mph5.5 kmh 30.61 in1036.6 mb 0.00 in0.0 mm 0.00 in0.0 mm 0.00 in0.0 mm
11:38 AM 27.1°F-2.7°C 4.9°F-15.1°C 38% 2.5 mph W4.0 kmh W 4.5 mph7.2 kmh 30.61 in1036.6 mb 0.00 in0.0 mm 0.00 in0.0 mm 0.00 in0.0 mm
11:37 AM 27.0°F-2.8°C 5.9°F-14.5°C 40% 1.3 mph NNE2.1 kmh NNE 2.2 mph3.5 kmh 30.61 in1036.6 mb 0.00 in0.0 mm 0.00 in0.0 mm 0.00 in0.0 mm
11:36 AM 26.8°F-2.9°C 5.8°F-14.6°C 40% 1.8 mph SW2.9 kmh SW 2.2 mph3.5 kmh 30.61 in1036.6 mb 0.00 in0.0 mm 0.00 in0.0 mm 0.00 in0.0 mm
11:35 AM 26.6°F-3.0°C 5.6°F-14.7°C 40% 1.8 mph E2.9 kmh E 2.2 mph3.5 kmh 30.60 in1036.2 mb 0.00 in0.0 mm 0.00 in0.0 mm 0.00 in0.0 mm
11:34 AM 26.8°F-2.9°C 4.6°F-15.2°C 38% 3.4 mph W5.5 kmh W 4.5 mph7.2 kmh 30.61 in1036.6 mb 0.00 in0.0 mm 0.00 in0.0 mm 0.00 in0.0 mm
11:32 AM 27.1°F-2.7°C 6.0°F-14.4°C 40% 0.2 mph NNE0.3 kmh NNE 1.1 mph1.8 kmh 30.60 in1036.2 mb 0.00 in0.0 mm 0.00 in0.0 mm 0.00 in0.0 mm
11:31 AM 27.1°F-2.7°C 6.0°F-14.4°C 40% 1.6 mph E2.6 kmh E 2.2 mph3.5 kmh 30.60 in1036.2 mb 0.00 in0.0 mm 0.00 in0.0 mm 0.00 in0.0 mm
11:30 AM 27.1°F-2.7°C 4.9°F-15.1°C 38% 3.4 mph ESE5.5 kmh ESE 4.5 mph7.2 kmh 30.61 in1036.6 mb 0.00 in0.0 mm 0.00 in0.0 mm 0.00 in0.0 mm
11:29 AM 27.0°F-2.8°C 5.4°F-14.8°C 39% 0.7 mph SE1.1 kmh SE 2.2 mph3.5 kmh 30.60 in1036.2 mb 0.00 in0.0 mm 0.00 in0.0 mm 0.00 in0.0 mm
11:28 AM 26.6°F-3.0°C 5.6°F-14.7°C 40% 0.7 mph NE1.1 kmh NE 1.1 mph1.8 kmh 30.60 in1036.2 mb 0.00 in0.0 mm 0.00 in0.0 mm 0.00 in0.0 mm
11:27 AM 26.6°F-3.0°C 5.6°F-14.7°C 40% 1.6 mph SW2.6 kmh SW 3.4 mph5.5 kmh 30.60 in1036.2 mb 0.00 in0.0 mm 0.00 in0.0 mm 0.00 in0.0 mm
11:26 AM 26.6°F-3.0°C 5.0°F-15.0°C 39% 1.3 mph SW2.1 kmh SW 2.2 mph3.5 kmh 30.60 in1036.2 mb 0.00 in0.0 mm 0.00 in0.0 mm 0.00 in0.0 mm
11:25 AM 26.6°F-3.0°C 6.1°F-14.4°C 41% 0.7 mph SW1.1 kmh SW 2.2 mph3.5 kmh 30.60 in1036.2 mb 0.00 in0.0 mm 0.00 in0.0 mm 0.00 in0.0 mm
11:23 AM 26.4°F-3.1°C 5.9°F-14.5°C 41% 4.5 mph W7.2 kmh W 5.8 mph9.3 kmh 30.61 in1036.6 mb 0.00 in0.0 mm 0.00 in0.0 mm 0.00 in0.0 mm
11:22 AM 26.2°F-3.2°C 5.7°F-14.6°C 41% 4.0 mph W6.4 kmh W 4.5 mph7.2 kmh 30.60 in1036.2 mb 0.00 in0.0 mm 0.00 in0.0 mm 0.00 in0.0 mm
11:21 AM 26.1°F-3.3°C 6.2°F-14.3°C 42% 1.8 mph W2.9 kmh W 2.2 mph3.5 kmh 30.60 in1036.2 mb 0.00 in0.0 mm 0.00 in0.0 mm 0.00 in0.0 mm
11:20 AM 26.1°F-3.3°C 6.7°F-14.1°C 43% 2.0 mph W3.2 kmh W 3.4 mph5.5 kmh 30.60 in1036.2 mb 0.00 in0.0 mm 0.00 in0.0 mm 0.00 in0.0 mm
11:19 AM 26.2°F-3.2°C 6.8°F-14.0°C 43% 1.6 mph W2.6 kmh W 2.2 mph3.5 kmh 30.61 in1036.6 mb 0.00 in0.0 mm 0.00 in0.0 mm 0.00 in0.0 mm
11:18 AM 26.6°F-3.0°C 6.6°F-14.1°C 42% 2.9 mph W4.7 kmh W 3.4 mph5.5 kmh 30.61 in1036.6 mb 0.00 in0.0 mm 0.00 in0.0 mm 0.00 in0.0 mm
11:17 AM 27.0°F-2.8°C 7.0°F-13.9°C 42% 4.5 mph WNW7.2 kmh WNW 5.8 mph9.3 kmh 30.61 in1036.6 mb 0.00 in0.0 mm 0.00 in0.0 mm 0.00 in0.0 mm
11:16 AM 27.3°F-2.6°C 6.2°F-14.3°C 40% 4.5 mph NW7.2 kmh NW 5.8 mph9.3 kmh 30.61 in1036.6 mb 0.00 in0.0 mm 0.00 in0.0 mm 0.00 in0.0 mm
11:15 AM 27.3°F-2.6°C 6.2°F-14.3°C 40% 3.4 mph W5.5 kmh W 3.4 mph5.5 kmh 30.61 in1036.6 mb 0.00 in0.0 mm 0.00 in0.0 mm 0.00 in0.0 mm
11:14 AM 27.1°F-2.7°C 6.6°F-14.1°C 41% Calm Calm -- 30.61 in1036.6 mb 0.00 in0.0 mm 0.00 in0.0 mm 0.00 in0.0 mm
11:13 AM 27.1°F-2.7°C 6.0°F-14.4°C 40% 2.7 mph W4.3 kmh W 3.4 mph5.5 kmh 30.61 in1036.6 mb 0.00 in0.0 mm 0.00 in0.0 mm 0.00 in0.0 mm
11:12 AM 26.8°F-2.9°C 5.8°F-14.6°C 40% 0.9 mph WSW1.4 kmh WSW 1.1 mph1.8 kmh 30.61 in1036.6 mb 0.00 in0.0 mm 0.00 in0.0 mm 0.00 in0.0 mm
11:11 AM 26.8°F-2.9°C 6.3°F-14.3°C 41% 1.3 mph W2.1 kmh W 2.2 mph3.5 kmh 30.61 in1036.6 mb 0.00 in0.0 mm 0.00 in0.0 mm 0.00 in0.0 mm
11:10 AM 26.6°F-3.0°C 6.6°F-14.1°C 42% 1.3 mph W2.1 kmh W 3.4 mph5.5 kmh 30.62 in1036.9 mb 0.00 in0.0 mm 0.00 in0.0 mm 0.00 in0.0 mm
11:09 AM 26.4°F-3.1°C 5.9°F-14.5°C 41% 0.7 mph SSE1.1 kmh SSE 1.1 mph1.8 kmh 30.61 in1036.6 mb 0.00 in0.0 mm 0.00 in0.0 mm 0.00 in0.0 mm
11:08 AM 26.6°F-3.0°C 6.1°F-14.4°C 41% 1.3 mph SE2.1 kmh SE 2.2 mph3.5 kmh 30.62 in1036.9 mb 0.00 in0.0 mm 0.00 in0.0 mm 0.00 in0.0 mm
11:07 AM 26.4°F-3.1°C 4.8°F-15.1°C 39% 2.0 mph SW3.2 kmh SW 4.5 mph7.2 kmh 30.62 in1036.9 mb 0.00 in0.0 mm 0.00 in0.0 mm 0.00 in0.0 mm
11:06 AM 26.4°F-3.1°C 5.4°F-14.8°C 40% 1.6 mph W2.6 kmh W 2.2 mph3.5 kmh 30.61 in1036.6 mb 0.00 in0.0 mm 0.00 in0.0 mm 0.00 in0.0 mm
11:05 AM 26.4°F-3.1°C 5.4°F-14.8°C 40% 1.3 mph WNW2.1 kmh WNW 2.2 mph3.5 kmh 30.61 in1036.6 mb 0.00 in0.0 mm 0.00 in0.0 mm 0.00 in0.0 mm
11:04 AM 26.6°F-3.0°C 3.9°F-15.6°C 37% 1.1 mph W1.8 kmh W 1.1 mph1.8 kmh 30.62 in1036.9 mb 0.00 in0.0 mm 0.00 in0.0 mm 0.00 in0.0 mm
11:03 AM 26.6°F-3.0°C 5.6°F-14.7°C 40% 2.5 mph WNW4.0 kmh WNW 3.4 mph5.5 kmh 30.62 in1036.9 mb 0.00 in0.0 mm 0.00 in0.0 mm 0.00 in0.0 mm
11:02 AM 26.6°F-3.0°C 5.0°F-15.0°C 39% 0.7 mph SSW1.1 kmh SSW 1.1 mph1.8 kmh 30.62 in1036.9 mb 0.00 in0.0 mm 0.00 in0.0 mm 0.00 in0.0 mm
11:01 AM 26.8°F-2.9°C 4.1°F-15.5°C 37% 3.8 mph SE6.1 kmh SE 5.8 mph9.3 kmh 30.62 in1036.9 mb 0.00 in0.0 mm 0.00 in0.0 mm 0.00 in0.0 mm
11:00 AM 26.8°F-2.9°C 6.3°F-14.3°C 41% 0.4 mph NNE0.6 kmh NNE 1.1 mph1.8 kmh 30.62 in1036.9 mb 0.00 in0.0 mm 0.00 in0.0 mm 0.00 in0.0 mm
10:59 AM 26.6°F-3.0°C 6.1°F-14.4°C 41% Calm Calm -- 30.63 in1037.3 mb 0.00 in0.0 mm 0.00 in0.0 mm 0.00 in0.0 mm
10:58 AM 26.6°F-3.0°C 5.6°F-14.7°C 40% 2.5 mph W4.0 kmh W 3.4 mph5.5 kmh 30.62 in1036.9 mb 0.00 in0.0 mm 0.00 in0.0 mm 0.00 in0.0 mm
10:57 AM 26.4°F-3.1°C 4.3°F-15.4°C 38% 1.3 mph W2.1 kmh W 2.2 mph3.5 kmh 30.62 in1036.9 mb 0.00 in0.0 mm 0.00 in0.0 mm 0.00 in0.0 mm
10:56 AM 26.2°F-3.2°C 5.7°F-14.6°C 41% Calm Calm -- 30.62 in1036.9 mb 0.00 in0.0 mm 0.00 in0.0 mm 0.00 in0.0 mm
10:55 AM 26.1°F-3.3°C 5.7°F-14.6°C 41% 0.9 mph W1.4 kmh W 1.1 mph1.8 kmh 30.63 in1037.3 mb 0.00 in0.0 mm 0.00 in0.0 mm 0.00 in0.0 mm
10:54 AM 26.1°F-3.3°C 5.1°F-14.9°C 40% 3.1 mph W5.0 kmh W 3.4 mph5.5 kmh 30.63 in1037.3 mb 0.00 in0.0 mm 0.00 in0.0 mm 0.00 in0.0 mm
10:53 AM 26.1°F-3.3°C 5.1°F-14.9°C 40% 0.7 mph SE1.1 kmh SE 1.1 mph1.8 kmh 30.63 in1037.3 mb 0.00 in0.0 mm 0.00 in0.0 mm 0.00 in0.0 mm
10:52 AM 26.1°F-3.3°C 4.6°F-15.2°C 39% 1.1 mph SE1.8 kmh SE 1.1 mph1.8 kmh 30.63 in1037.3 mb 0.00 in0.0 mm 0.00 in0.0 mm 0.00 in0.0 mm
10:51 AM 26.1°F-3.3°C 5.7°F-14.6°C 41% 1.6 mph W2.6 kmh W 2.2 mph3.5 kmh 30.63 in1037.3 mb 0.00 in0.0 mm 0.00 in0.0 mm 0.00 in0.0 mm
10:50 AM 26.2°F-3.2°C 5.2°F-14.9°C 40% 1.3 mph WSW2.1 kmh WSW 2.2 mph3.5 kmh 30.63 in1037.3 mb 0.00 in0.0 mm 0.00 in0.0 mm 0.00 in0.0 mm
10:49 AM 26.2°F-3.2°C 5.2°F-14.9°C 40% 0.9 mph SE1.4 kmh SE 2.2 mph3.5 kmh 30.63 in1037.3 mb 0.00 in0.0 mm 0.00 in0.0 mm 0.00 in0.0 mm
10:48 AM 26.2°F-3.2°C 5.2°F-14.9°C 40% 0.7 mph WSW1.1 kmh WSW 1.1 mph1.8 kmh 30.63 in1037.3 mb 0.00 in0.0 mm 0.00 in0.0 mm 0.00 in0.0 mm
10:47 AM 26.1°F-3.3°C 6.2°F-14.3°C 42% 0.9 mph W1.4 kmh W 2.2 mph3.5 kmh 30.63 in1037.3 mb 0.00 in0.0 mm 0.00 in0.0 mm 0.00 in0.0 mm
10:46 AM 26.1°F-3.3°C 6.2°F-14.3°C 42% 1.3 mph W2.1 kmh W 2.2 mph3.5 kmh 30.63 in1037.3 mb 0.00 in0.0 mm 0.00 in0.0 mm 0.00 in0.0 mm
10:45 AM 26.1°F-3.3°C 5.1°F-14.9°C 40% 0.7 mph W1.1 kmh W 1.1 mph1.8 kmh 30.62 in1036.9 mb 0.00 in0.0 mm 0.00 in0.0 mm 0.00 in0.0 mm
10:44 AM 25.9°F-3.4°C 5.5°F-14.7°C 41% 1.8 mph W2.9 kmh W 2.2 mph3.5 kmh 30.62 in1036.9 mb 0.00 in0.0 mm 0.00 in0.0 mm 0.00 in0.0 mm
10:43 AM 25.5°F-3.6°C 6.7°F-14.1°C 44% 1.3 mph WSW2.1 kmh WSW 2.2 mph3.5 kmh 30.63 in1037.3 mb 0.00 in0.0 mm 0.00 in0.0 mm 0.00 in0.0 mm
10:42 AM 25.3°F-3.7°C 6.0°F-14.4°C 43% 0.2 mph WSW0.3 kmh WSW 1.1 mph1.8 kmh 30.63 in1037.3 mb 0.00 in0.0 mm 0.00 in0.0 mm 0.00 in0.0 mm
10:41 AM 25.0°F-3.9°C 6.7°F-14.1°C 45% 0.4 mph SE0.6 kmh SE 1.1 mph1.8 kmh 30.62 in1036.9 mb 0.00 in0.0 mm 0.00 in0.0 mm 0.00 in0.0 mm
10:39 AM 24.8°F-4.0°C 5.5°F-14.7°C 43% 0.7 mph SW1.1 kmh SW 1.1 mph1.8 kmh 30.62 in1036.9 mb 0.00 in0.0 mm 0.00 in0.0 mm 0.00 in0.0 mm
10:38 AM 25.0°F-3.9°C 6.2°F-14.3°C 44% 2.7 mph WNW4.3 kmh WNW 3.4 mph5.5 kmh 30.62 in1036.9 mb 0.00 in0.0 mm 0.00 in0.0 mm 0.00 in0.0 mm
10:36 AM 25.0°F-3.9°C 5.7°F-14.6°C 43% 1.8 mph SE2.9 kmh SE 2.2 mph3.5 kmh 30.62 in1036.9 mb 0.00 in0.0 mm 0.00 in0.0 mm 0.00 in0.0 mm
10:35 AM 25.0°F-3.9°C 6.2°F-14.3°C 44% 1.6 mph W2.6 kmh W 2.2 mph3.5 kmh 30.62 in1036.9 mb 0.00 in0.0 mm 0.00 in0.0 mm 0.00 in0.0 mm
10:34 AM 25.0°F-3.9°C 6.2°F-14.3°C 44% 4.0 mph W6.4 kmh W 4.5 mph7.2 kmh 30.63 in1037.3 mb 0.00 in0.0 mm 0.00 in0.0 mm 0.00 in0.0 mm
10:33 AM 25.0°F-3.9°C 6.7°F-14.1°C 45% 0.2 mph W0.3 kmh W 1.1 mph1.8 kmh 30.62 in1036.9 mb 0.00 in0.0 mm 0.00 in0.0 mm 0.00 in0.0 mm
10:32 AM 25.0°F-3.9°C 6.2°F-14.3°C 44% 1.8 mph W2.9 kmh W 2.2 mph3.5 kmh 30.62 in1036.9 mb 0.00 in0.0 mm 0.00 in0.0 mm 0.00 in0.0 mm
10:31 AM 24.8°F-4.0°C 5.5°F-14.7°C 43% 2.9 mph W4.7 kmh W 4.5 mph7.2 kmh 30.63 in1037.3 mb 0.00 in0.0 mm 0.00 in0.0 mm 0.00 in0.0 mm
10:30 AM 24.8°F-4.0°C 6.5°F-14.2°C 45% 1.8 mph WNW2.9 kmh WNW 3.4 mph5.5 kmh 30.63 in1037.3 mb 0.00 in0.0 mm 0.00 in0.0 mm 0.00 in0.0 mm
10:29 AM 25.0°F-3.9°C 7.2°F-13.8°C 46% 2.0 mph W3.2 kmh W 2.2 mph3.5 kmh 30.63 in1037.3 mb 0.00 in0.0 mm 0.00 in0.0 mm 0.00 in0.0 mm
10:28 AM 25.2°F-3.8°C 6.4°F-14.2°C 44% 4.3 mph W6.9 kmh W 4.5 mph7.2 kmh 30.63 in1037.3 mb 0.00 in0.0 mm 0.00 in0.0 mm 0.00 in0.0 mm
10:27 AM 25.3°F-3.7°C 6.5°F-14.2°C 44% 1.8 mph W2.9 kmh W 2.2 mph3.5 kmh 30.63 in1037.3 mb 0.00 in0.0 mm 0.00 in0.0 mm 0.00 in0.0 mm
10:26 AM 25.3°F-3.7°C 6.5°F-14.2°C 44% 2.5 mph WSW4.0 kmh WSW 3.4 mph5.5 kmh 30.63 in1037.3 mb 0.00 in0.0 mm 0.00 in0.0 mm 0.00 in0.0 mm
10:25 AM 25.3°F-3.7°C 6.0°F-14.4°C 43% 2.2 mph WNW3.5 kmh WNW 2.2 mph3.5 kmh 30.63 in1037.3 mb 0.00 in0.0 mm 0.00 in0.0 mm 0.00 in0.0 mm
10:24 AM 25.2°F-3.8°C 5.4°F-14.8°C 42% 1.1 mph S1.8 kmh S 1.1 mph1.8 kmh 30.63 in1037.3 mb 0.00 in0.0 mm 0.00 in0.0 mm 0.00 in0.0 mm
10:23 AM 25.0°F-3.9°C 5.2°F-14.9°C 42% 0.4 mph SSE0.6 kmh SSE 1.1 mph1.8 kmh 30.61 in1036.6 mb 0.00 in0.0 mm 0.00 in0.0 mm 0.00 in0.0 mm
10:22 AM 25.0°F-3.9°C 6.2°F-14.3°C 44% 0.7 mph SSE1.1 kmh SSE 1.1 mph1.8 kmh 30.62 in1036.9 mb 0.00 in0.0 mm 0.00 in0.0 mm 0.00 in0.0 mm
10:21 AM 25.0°F-3.9°C 5.7°F-14.6°C 43% 1.1 mph SSE1.8 kmh SSE 1.1 mph1.8 kmh 30.63 in1037.3 mb 0.00 in0.0 mm 0.00 in0.0 mm 0.00 in0.0 mm
10:20 AM 25.2°F-3.8°C 5.4°F-14.8°C 42% 0.4 mph SSE0.6 kmh SSE 1.1 mph1.8 kmh 30.63 in1037.3 mb 0.00 in0.0 mm 0.00 in0.0 mm 0.00 in0.0 mm
10:19 AM 25.3°F-3.7°C 6.0°F-14.4°C 43% 0.2 mph SE0.3 kmh SE 1.1 mph1.8 kmh 30.63 in1037.3 mb 0.00 in0.0 mm 0.00 in0.0 mm 0.00 in0.0 mm
10:18 AM 25.5°F-3.6°C 5.1°F-14.9°C 41% 2.2 mph ESE3.5 kmh ESE 2.2 mph3.5 kmh 30.63 in1037.3 mb 0.00 in0.0 mm 0.00 in0.0 mm 0.00 in0.0 mm
10:17 AM 25.3°F-3.7°C 6.5°F-14.2°C 44% 0.2 mph WSW0.3 kmh WSW 1.1 mph1.8 kmh 30.62 in1036.9 mb 0.00 in0.0 mm 0.00 in0.0 mm 0.00 in0.0 mm
10:16 AM 25.3°F-3.7°C 6.0°F-14.4°C 43% 2.5 mph WSW4.0 kmh WSW 3.4 mph5.5 kmh 30.63 in1037.3 mb 0.00 in0.0 mm 0.00 in0.0 mm 0.00 in0.0 mm
10:15 AM 25.2°F-3.8°C 5.4°F-14.8°C 42% 0.7 mph SW1.1 kmh SW 2.2 mph3.5 kmh 30.63 in1037.3 mb 0.00 in0.0 mm 0.00 in0.0 mm 0.00 in0.0 mm
10:14 AM 24.8°F-4.0°C 6.0°F-14.4°C 44% 1.1 mph SSW1.8 kmh SSW 1.1 mph1.8 kmh 30.62 in1036.9 mb 0.00 in0.0 mm 0.00 in0.0 mm 0.00 in0.0 mm
10:13 AM 24.6°F-4.1°C 6.3°F-14.3°C 45% 1.3 mph WSW2.1 kmh WSW 2.2 mph3.5 kmh 30.62 in1036.9 mb 0.00 in0.0 mm 0.00 in0.0 mm 0.00 in0.0 mm
10:12 AM 24.4°F-4.2°C 5.7°F-14.6°C 44% 0.7 mph E1.1 kmh E 2.2 mph3.5 kmh 30.62 in1036.9 mb 0.00 in0.0 mm 0.00 in0.0 mm 0.00 in0.0 mm
10:11 AM 24.6°F-4.1°C 5.3°F-14.8°C 43% 1.1 mph E1.8 kmh E 1.1 mph1.8 kmh 30.62 in1036.9 mb 0.00 in0.0 mm 0.00 in0.0 mm 0.00 in0.0 mm
10:10 AM 24.8°F-4.0°C 6.0°F-14.4°C 44% 0.9 mph E1.4 kmh E 1.1 mph1.8 kmh 30.62 in1036.9 mb 0.00 in0.0 mm 0.00 in0.0 mm 0.00 in0.0 mm
10:09 AM 25.0°F-3.9°C 6.2°F-14.3°C 44% 2.2 mph ESE3.5 kmh ESE 4.5 mph7.2 kmh 30.62 in1036.9 mb 0.00 in0.0 mm 0.00 in0.0 mm 0.00 in0.0 mm
10:07 AM 25.2°F-3.8°C 7.4°F-13.7°C 46% 0.2 mph W0.3 kmh W 1.1 mph1.8 kmh 30.63 in1037.3 mb 0.00 in0.0 mm 0.00 in0.0 mm 0.00 in0.0 mm
10:05 AM 25.0°F-3.9°C 8.1°F-13.3°C 48% Calm Calm -- 30.62 in1036.9 mb 0.00 in0.0 mm 0.00 in0.0 mm 0.00 in0.0 mm
10:04 AM 24.8°F-4.0°C 7.0°F-13.9°C 46% 0.7 mph W1.1 kmh W 1.1 mph1.8 kmh 30.62 in1036.9 mb 0.00 in0.0 mm 0.00 in0.0 mm 0.00 in0.0 mm
10:03 AM 24.6°F-4.1°C 7.3°F-13.7°C 47% 1.3 mph W2.1 kmh W 2.2 mph3.5 kmh 30.62 in1036.9 mb 0.00 in0.0 mm 0.00 in0.0 mm 0.00 in0.0 mm
10:02 AM 24.4°F-4.2°C 7.6°F-13.6°C 48% 0.4 mph W0.6 kmh W 1.1 mph1.8 kmh 30.61 in1036.6 mb 0.00 in0.0 mm 0.00 in0.0 mm 0.00 in0.0 mm
10:01 AM 24.3°F-4.3°C 6.5°F-14.2°C 46% 0.9 mph W1.4 kmh W 1.1 mph1.8 kmh 30.61 in1036.6 mb 0.00 in0.0 mm 0.00 in0.0 mm 0.00 in0.0 mm
10:00 AM 24.1°F-4.4°C 5.9°F-14.5°C 45% 1.8 mph W2.9 kmh W 2.2 mph3.5 kmh 30.61 in1036.6 mb 0.00 in0.0 mm 0.00 in0.0 mm 0.00 in0.0 mm
09:59 AM 23.9°F-4.5°C 5.7°F-14.6°C 45% 1.8 mph W2.9 kmh W 2.2 mph3.5 kmh 30.61 in1036.6 mb 0.00 in0.0 mm 0.00 in0.0 mm 0.00 in0.0 mm
09:58 AM 23.9°F-4.5°C 5.2°F-14.9°C 44% 1.3 mph S2.1 kmh S 2.2 mph3.5 kmh 30.61 in1036.6 mb 0.00 in0.0 mm 0.00 in0.0 mm 0.00 in0.0 mm
09:57 AM 24.1°F-4.4°C 4.9°F-15.1°C 43% 1.3 mph SE2.1 kmh SE 2.2 mph3.5 kmh 30.62 in1036.9 mb 0.00 in0.0 mm 0.00 in0.0 mm 0.00 in0.0 mm
09:56 AM 23.9°F-4.5°C 5.2°F-14.9°C 44% 1.1 mph E1.8 kmh E 2.2 mph3.5 kmh 30.61 in1036.6 mb 0.00 in0.0 mm 0.00 in0.0 mm 0.00 in0.0 mm
09:55 AM 23.9°F-4.5°C 4.7°F-15.2°C 43% 1.1 mph SE1.8 kmh SE 2.2 mph3.5 kmh 30.62 in1036.9 mb 0.00 in0.0 mm 0.00 in0.0 mm 0.00 in0.0 mm
09:54 AM 23.7°F-4.6°C 4.5°F-15.3°C 43% 2.9 mph E4.7 kmh E 4.5 mph7.2 kmh 30.61 in1036.6 mb 0.00 in0.0 mm 0.00 in0.0 mm 0.00 in0.0 mm
09:53 AM 23.4°F-4.8°C 6.2°F-14.3°C 47% 0.9 mph WSW1.4 kmh WSW 1.1 mph1.8 kmh 30.61 in1036.6 mb 0.00 in0.0 mm 0.00 in0.0 mm 0.00 in0.0 mm
09:52 AM 23.0°F-5.0°C 7.2°F-13.8°C 50% 0.9 mph WNW1.4 kmh WNW 1.1 mph1.8 kmh 30.61 in1036.6 mb 0.00 in0.0 mm 0.00 in0.0 mm 0.00 in0.0 mm
09:51 AM 22.8°F-5.1°C 7.0°F-13.9°C 50% 0.7 mph W1.1 kmh W 2.2 mph3.5 kmh 30.61 in1036.6 mb 0.00 in0.0 mm 0.00 in0.0 mm 0.00 in0.0 mm
09:50 AM 22.8°F-5.1°C 7.4°F-13.7°C 51% 2.9 mph W4.7 kmh W 3.4 mph5.5 kmh 30.61 in1036.6 mb 0.00 in0.0 mm 0.00 in0.0 mm 0.00 in0.0 mm
09:49 AM 22.6°F-5.2°C 7.7°F-13.5°C 52% 0.7 mph W1.1 kmh W 1.1 mph1.8 kmh 30.61 in1036.6 mb 0.00 in0.0 mm 0.00 in0.0 mm 0.00 in0.0 mm
09:48 AM 22.8°F-5.1°C 7.8°F-13.4°C 52% 2.0 mph W3.2 kmh W 2.2 mph3.5 kmh 30.61 in1036.6 mb 0.00 in0.0 mm 0.00 in0.0 mm 0.00 in0.0 mm
09:47 AM 23.0°F-5.0°C 8.0°F-13.3°C 52% 3.8 mph W6.1 kmh W 4.5 mph7.2 kmh 30.61 in1036.6 mb 0.00 in0.0 mm 0.00 in0.0 mm 0.00 in0.0 mm
09:46 AM 22.8°F-5.1°C 8.3°F-13.2°C 53% 1.3 mph W2.1 kmh W 2.2 mph3.5 kmh 30.61 in1036.6 mb 0.00 in0.0 mm 0.00 in0.0 mm 0.00 in0.0 mm
09:45 AM 22.8°F-5.1°C 7.8°F-13.4°C 52% 3.4 mph W5.5 kmh W 3.4 mph5.5 kmh 30.60 in1036.2 mb 0.00 in0.0 mm 0.00 in0.0 mm 0.00 in0.0 mm
09:44 AM 22.8°F-5.1°C 7.8°F-13.4°C 52% 2.7 mph W4.3 kmh W 4.5 mph7.2 kmh 30.61 in1036.6 mb 0.00 in0.0 mm 0.00 in0.0 mm 0.00 in0.0 mm
09:43 AM 22.6°F-5.2°C 8.1°F-13.3°C 53% 1.1 mph W1.8 kmh W 1.1 mph1.8 kmh 30.61 in1036.6 mb 0.00 in0.0 mm 0.00 in0.0 mm 0.00 in0.0 mm
09:42 AM 22.3°F-5.4°C 7.8°F-13.4°C 53% 0.2 mph W0.3 kmh W 1.1 mph1.8 kmh 30.61 in1036.6 mb 0.00 in0.0 mm 0.00 in0.0 mm 0.00 in0.0 mm
09:41 AM 22.3°F-5.4°C 7.4°F-13.7°C 52% 2.9 mph W4.7 kmh W 4.5 mph7.2 kmh 30.61 in1036.6 mb 0.00 in0.0 mm 0.00 in0.0 mm 0.00 in0.0 mm
09:40 AM 22.1°F-5.5°C 7.2°F-13.8°C 52% 2.7 mph W4.3 kmh W 3.4 mph5.5 kmh 30.60 in1036.2 mb 0.00 in0.0 mm 0.00 in0.0 mm 0.00 in0.0 mm
09:39 AM 22.1°F-5.5°C 7.2°F-13.8°C 52% 3.4 mph W5.5 kmh W 4.5 mph7.2 kmh 30.61 in1036.6 mb 0.00 in0.0 mm 0.00 in0.0 mm 0.00 in0.0 mm
09:38 AM 21.7°F-5.7°C 7.2°F-13.8°C 53% 0.9 mph W1.4 kmh W 1.1 mph1.8 kmh 30.61 in1036.6 mb 0.00 in0.0 mm 0.00 in0.0 mm 0.00 in0.0 mm
09:37 AM 21.7°F-5.7°C 7.2°F-13.8°C 53% 3.4 mph W5.5 kmh W 4.5 mph7.2 kmh 30.60 in1036.2 mb 0.00 in0.0 mm 0.00 in0.0 mm 0.00 in0.0 mm
09:36 AM 21.9°F-5.6°C 7.4°F-13.7°C 53% 3.4 mph W5.5 kmh W 4.5 mph7.2 kmh 30.60 in1036.2 mb 0.00 in0.0 mm 0.00 in0.0 mm 0.00 in0.0 mm
09:35 AM 21.9°F-5.6°C 7.4°F-13.7°C 53% 2.9 mph W4.7 kmh W 3.4 mph5.5 kmh 30.60 in1036.2 mb 0.00 in0.0 mm 0.00 in0.0 mm 0.00 in0.0 mm
09:34 AM 22.3°F-5.4°C 8.2°F-13.2°C 54% 1.6 mph W2.6 kmh W 2.2 mph3.5 kmh 30.61 in1036.6 mb 0.00 in0.0 mm 0.00 in0.0 mm 0.00 in0.0 mm
09:33 AM 22.3°F-5.4°C 7.8°F-13.4°C 53% 5.1 mph W8.2 kmh W 5.8 mph9.3 kmh 30.60 in1036.2 mb 0.00 in0.0 mm 0.00 in0.0 mm 0.00 in0.0 mm
09:32 AM 22.3°F-5.4°C 7.4°F-13.7°C 52% 3.1 mph W5.0 kmh W 3.4 mph5.5 kmh 30.60 in1036.2 mb 0.00 in0.0 mm 0.00 in0.0 mm 0.00 in0.0 mm
09:31 AM 21.9°F-5.6°C 7.0°F-13.9°C 52% 2.9 mph W4.7 kmh W 3.4 mph5.5 kmh 30.60 in1036.2 mb 0.00 in0.0 mm 0.00 in0.0 mm 0.00 in0.0 mm
09:30 AM 21.7°F-5.7°C 7.2°F-13.8°C 53% 2.0 mph W3.2 kmh W 2.2 mph3.5 kmh 30.61 in1036.6 mb 0.00 in0.0 mm 0.00 in0.0 mm 0.00 in0.0 mm
09:29 AM 21.4°F-5.9°C 7.8°F-13.4°C 55% Calm Calm -- 30.61 in1036.6 mb 0.00 in0.0 mm 0.00 in0.0 mm 0.00 in0.0 mm
09:28 AM 21.0°F-6.1°C 7.4°F-13.7°C 55% 2.2 mph WNW3.5 kmh WNW 2.2 mph3.5 kmh 30.61 in1036.6 mb 0.00 in0.0 mm 0.00 in0.0 mm 0.00 in0.0 mm
09:27 AM 21.0°F-6.1°C 7.4°F-13.7°C 55% 2.9 mph W4.7 kmh W 4.5 mph7.2 kmh 30.61 in1036.6 mb 0.00 in0.0 mm 0.00 in0.0 mm 0.00 in0.0 mm
09:25 AM 20.8°F-6.2°C 6.4°F-14.2°C 53% 4.0 mph W6.4 kmh W 5.8 mph9.3 kmh 30.61 in1036.6 mb 0.00 in0.0 mm 0.00 in0.0 mm 0.00 in0.0 mm
09:24 AM 20.7°F-6.3°C 6.7°F-14.1°C 54% 1.6 mph W2.6 kmh W 2.2 mph3.5 kmh 30.60 in1036.2 mb 0.00 in0.0 mm 0.00 in0.0 mm 0.00 in0.0 mm
09:23 AM 20.8°F-6.2°C 6.8°F-14.0°C 54% 3.8 mph WNW6.1 kmh WNW 4.5 mph7.2 kmh 30.60 in1036.2 mb 0.00 in0.0 mm 0.00 in0.0 mm 0.00 in0.0 mm
09:22 AM 20.8°F-6.2°C 7.2°F-13.8°C 55% 4.3 mph W6.9 kmh W 4.5 mph7.2 kmh 30.60 in1036.2 mb 0.00 in0.0 mm 0.00 in0.0 mm 0.00 in0.0 mm
09:21 AM 21.0°F-6.1°C 7.0°F-13.9°C 54% 4.5 mph W7.2 kmh W 5.8 mph9.3 kmh 30.60 in1036.2 mb 0.00 in0.0 mm 0.00 in0.0 mm 0.00 in0.0 mm
09:20 AM 21.4°F-5.9°C 7.4°F-13.7°C 54% 4.9 mph W7.9 kmh W 5.8 mph9.3 kmh 30.61 in1036.6 mb 0.00 in0.0 mm 0.00 in0.0 mm 0.00 in0.0 mm
09:19 AM 21.6°F-5.8°C 7.1°F-13.8°C 53% 3.8 mph W6.1 kmh W 4.5 mph7.2 kmh 30.60 in1036.2 mb 0.00 in0.0 mm 0.00 in0.0 mm 0.00 in0.0 mm
09:18 AM 21.6°F-5.8°C 7.6°F-13.6°C 54% 4.9 mph W7.9 kmh W 6.9 mph11.1 kmh 30.60 in1036.2 mb 0.00 in0.0 mm 0.00 in0.0 mm 0.00 in0.0 mm
09:17 AM 21.6°F-5.8°C 7.1°F-13.8°C 53% 3.6 mph W5.8 kmh W 4.5 mph7.2 kmh 30.61 in1036.6 mb 0.00 in0.0 mm 0.00 in0.0 mm 0.00 in0.0 mm
09:16 AM 21.4°F-5.9°C 7.4°F-13.7°C 54% 1.8 mph WSW2.9 kmh WSW 2.2 mph3.5 kmh 30.61 in1036.6 mb 0.00 in0.0 mm 0.00 in0.0 mm 0.00 in0.0 mm
09:15 AM 21.4°F-5.9°C 7.4°F-13.7°C 54% 0.4 mph SW0.6 kmh SW 1.1 mph1.8 kmh 30.60 in1036.2 mb 0.00 in0.0 mm 0.00 in0.0 mm 0.00 in0.0 mm
09:14 AM 21.4°F-5.9°C 7.8°F-13.4°C 55% 0.7 mph WNW1.1 kmh WNW 2.2 mph3.5 kmh 30.60 in1036.2 mb 0.00 in0.0 mm 0.00 in0.0 mm 0.00 in0.0 mm
09:13 AM 21.6°F-5.8°C 7.6°F-13.6°C 54% 3.8 mph W6.1 kmh W 5.8 mph9.3 kmh 30.61 in1036.6 mb 0.00 in0.0 mm 0.00 in0.0 mm 0.00 in0.0 mm
09:12 AM 21.6°F-5.8°C 7.6°F-13.6°C 54% 2.9 mph WNW4.7 kmh WNW 3.4 mph5.5 kmh 30.60 in1036.2 mb 0.00 in0.0 mm 0.00 in0.0 mm 0.00 in0.0 mm
09:11 AM 21.4°F-5.9°C 7.0°F-13.9°C 53% 1.6 mph SW2.6 kmh SW 2.2 mph3.5 kmh 30.60 in1036.2 mb 0.00 in0.0 mm 0.00 in0.0 mm 0.00 in0.0 mm
09:10 AM 21.2°F-6.0°C 7.6°F-13.6°C 55% 2.7 mph E4.3 kmh E 4.5 mph7.2 kmh 30.60 in1036.2 mb 0.00 in0.0 mm 0.00 in0.0 mm 0.00 in0.0 mm
09:08 AM 21.2°F-6.0°C 8.0°F-13.3°C 56% 1.6 mph W2.6 kmh W 3.4 mph5.5 kmh 30.61 in1036.6 mb 0.00 in0.0 mm 0.00 in0.0 mm 0.00 in0.0 mm
09:07 AM 21.4°F-5.9°C 8.2°F-13.2°C 56% 3.1 mph W5.0 kmh W 3.4 mph5.5 kmh 30.61 in1036.6 mb 0.00 in0.0 mm 0.00 in0.0 mm 0.00 in0.0 mm
09:06 AM 21.4°F-5.9°C 8.2°F-13.2°C 56% 1.1 mph W1.8 kmh W 1.1 mph1.8 kmh 30.61 in1036.6 mb 0.00 in0.0 mm 0.00 in0.0 mm 0.00 in0.0 mm
09:05 AM 21.6°F-5.8°C 8.0°F-13.3°C 55% 3.1 mph W5.0 kmh W 3.4 mph5.5 kmh 30.60 in1036.2 mb 0.00 in0.0 mm 0.00 in0.0 mm 0.00 in0.0 mm
09:04 AM 21.9°F-5.6°C 8.6°F-13.0°C 56% 1.3 mph W2.1 kmh W 2.2 mph3.5 kmh 30.61 in1036.6 mb 0.00 in0.0 mm 0.00 in0.0 mm 0.00 in0.0 mm
09:03 AM 22.1°F-5.5°C 8.4°F-13.1°C 55% 2.0 mph WSW3.2 kmh WSW 4.5 mph7.2 kmh 30.61 in1036.6 mb 0.00 in0.0 mm 0.00 in0.0 mm 0.00 in0.0 mm
09:02 AM 22.3°F-5.4°C 9.0°F-12.8°C 56% 1.8 mph W2.9 kmh W 2.2 mph3.5 kmh 30.61 in1036.6 mb 0.00 in0.0 mm 0.00 in0.0 mm 0.00 in0.0 mm
09:01 AM 22.3°F-5.4°C 8.6°F-13.0°C 55% 2.2 mph W3.5 kmh W 2.2 mph3.5 kmh 30.61 in1036.6 mb 0.00 in0.0 mm 0.00 in0.0 mm 0.00 in0.0 mm
09:00 AM 22.3°F-5.4°C 8.2°F-13.2°C 54% 0.7 mph WNW1.1 kmh WNW 2.2 mph3.5 kmh 30.61 in1036.6 mb 0.00 in0.0 mm 0.00 in0.0 mm 0.00 in0.0 mm
08:59 AM 21.9°F-5.6°C 7.8°F-13.4°C 54% 2.7 mph WNW4.3 kmh WNW 3.4 mph5.5 kmh 30.60 in1036.2 mb 0.00 in0.0 mm 0.00 in0.0 mm 0.00 in0.0 mm
08:58 AM 21.6°F-5.8°C 7.6°F-13.6°C 54% Calm Calm -- 30.61 in1036.6 mb 0.00 in0.0 mm 0.00 in0.0 mm 0.00 in0.0 mm
08:57 AM 21.0°F-6.1°C 7.8°F-13.4°C 56% 0.4 mph SW0.6 kmh SW 1.1 mph1.8 kmh 30.61 in1036.6 mb 0.00 in0.0 mm 0.00 in0.0 mm 0.00 in0.0 mm
08:56 AM 20.8°F-6.2°C 8.0°F-13.3°C 57% Calm Calm -- 30.61 in1036.6 mb 0.00 in0.0 mm 0.00 in0.0 mm 0.00 in0.0 mm
08:55 AM 20.8°F-6.2°C 8.4°F-13.1°C 58% 0.7 mph SW1.1 kmh SW 1.1 mph1.8 kmh 30.61 in1036.6 mb 0.00 in0.0 mm 0.00 in0.0 mm 0.00 in0.0 mm
08:54 AM 21.0°F-6.1°C 8.6°F-13.0°C 58% 2.9 mph WSW4.7 kmh WSW 4.5 mph7.2 kmh 30.61 in1036.6 mb 0.00 in0.0 mm 0.00 in0.0 mm 0.00 in0.0 mm
08:53 AM 21.2°F-6.0°C 8.8°F-12.9°C 58% 1.3 mph W2.1 kmh W 2.2 mph3.5 kmh 30.61 in1036.6 mb 0.00 in0.0 mm 0.00 in0.0 mm 0.00 in0.0 mm
08:52 AM 21.4°F-5.9°C 8.6°F-13.0°C 57% 1.1 mph W1.8 kmh W 1.1 mph1.8 kmh 30.61 in1036.6 mb 0.00 in0.0 mm 0.00 in0.0 mm 0.00 in0.0 mm
08:51 AM 21.4°F-5.9°C 7.8°F-13.4°C 55% 0.9 mph W1.4 kmh W 1.1 mph1.8 kmh 30.61 in1036.6 mb 0.00 in0.0 mm 0.00 in0.0 mm 0.00 in0.0 mm
08:50 AM 21.4°F-5.9°C 8.2°F-13.2°C 56% 2.0 mph WNW3.2 kmh WNW 3.4 mph5.5 kmh 30.61 in1036.6 mb 0.00 in0.0 mm 0.00 in0.0 mm 0.00 in0.0 mm
08:49 AM 21.0°F-6.1°C 8.2°F-13.2°C 57% 0.2 mph NW0.3 kmh NW 1.1 mph1.8 kmh 30.61 in1036.6 mb 0.00 in0.0 mm 0.00 in0.0 mm 0.00 in0.0 mm
08:48 AM 20.8°F-6.2°C 8.0°F-13.3°C 57% 0.4 mph SW0.6 kmh SW 1.1 mph1.8 kmh 30.61 in1036.6 mb 0.00 in0.0 mm 0.00 in0.0 mm 0.00 in0.0 mm
08:47 AM 20.7°F-6.3°C 8.7°F-12.9°C 59% 0.7 mph WNW1.1 kmh WNW 1.1 mph1.8 kmh 30.62 in1036.9 mb 0.00 in0.0 mm 0.00 in0.0 mm 0.00 in0.0 mm
08:46 AM 20.5°F-6.4°C 7.7°F-13.5°C 57% 1.8 mph W2.9 kmh W 3.4 mph5.5 kmh 30.61 in1036.6 mb 0.00 in0.0 mm 0.00 in0.0 mm 0.00 in0.0 mm
08:45 AM 20.1°F-6.6°C 7.7°F-13.5°C 58% 0.9 mph SW1.4 kmh SW 2.2 mph3.5 kmh 30.61 in1036.6 mb 0.00 in0.0 mm 0.00 in0.0 mm 0.00 in0.0 mm
08:44 AM 19.9°F-6.7°C 7.5°F-13.6°C 58% 3.1 mph WNW5.0 kmh WNW 4.5 mph7.2 kmh 30.61 in1036.6 mb 0.00 in0.0 mm 0.00 in0.0 mm 0.00 in0.0 mm
08:43 AM 19.9°F-6.7°C 7.5°F-13.6°C 58% 2.7 mph W4.3 kmh W 3.4 mph5.5 kmh 30.61 in1036.6 mb 0.00 in0.0 mm 0.00 in0.0 mm 0.00 in0.0 mm
08:42 AM 19.9°F-6.7°C 7.9°F-13.4°C 59% 1.8 mph NNW2.9 kmh NNW 2.2 mph3.5 kmh 30.61 in1036.6 mb 0.00 in0.0 mm 0.00 in0.0 mm 0.00 in0.0 mm
08:41 AM 19.8°F-6.8°C 8.2°F-13.2°C 60% 2.2 mph W3.5 kmh W 3.4 mph5.5 kmh 30.62 in1036.9 mb 0.00 in0.0 mm 0.00 in0.0 mm 0.00 in0.0 mm
08:40 AM 19.9°F-6.7°C 7.9°F-13.4°C 59% 4.3 mph W6.9 kmh W 4.5 mph7.2 kmh 30.61 in1036.6 mb 0.00 in0.0 mm 0.00 in0.0 mm 0.00 in0.0 mm
08:39 AM 19.9°F-6.7°C 7.5°F-13.6°C 58% 4.5 mph W7.2 kmh W 5.8 mph9.3 kmh 30.60 in1036.2 mb 0.00 in0.0 mm 0.00 in0.0 mm 0.00 in0.0 mm
08:38 AM 20.1°F-6.6°C 7.7°F-13.5°C 58% 0.7 mph ESE1.1 kmh ESE 1.1 mph1.8 kmh 30.60 in1036.2 mb 0.00 in0.0 mm 0.00 in0.0 mm 0.00 in0.0 mm
08:36 AM 20.1°F-6.6°C 7.7°F-13.5°C 58% 1.1 mph W1.8 kmh W 1.1 mph1.8 kmh 30.61 in1036.6 mb 0.00 in0.0 mm 0.00 in0.0 mm 0.00 in0.0 mm
08:34 AM 20.1°F-6.6°C 7.7°F-13.5°C 58% 1.8 mph W2.9 kmh W 3.4 mph5.5 kmh 30.61 in1036.6 mb 0.00 in0.0 mm 0.00 in0.0 mm 0.00 in0.0 mm
08:33 AM 20.1°F-6.6°C 7.7°F-13.5°C 58% 1.1 mph W1.8 kmh W 1.1 mph1.8 kmh 30.61 in1036.6 mb 0.00 in0.0 mm 0.00 in0.0 mm 0.00 in0.0 mm
08:32 AM 20.1°F-6.6°C 8.1°F-13.3°C 59% 0.7 mph W1.1 kmh W 1.1 mph1.8 kmh 30.60 in1036.2 mb 0.00 in0.0 mm 0.00 in0.0 mm 0.00 in0.0 mm
08:31 AM 19.9°F-6.7°C 8.3°F-13.2°C 60% Calm Calm -- 30.60 in1036.2 mb 0.00 in0.0 mm 0.00 in0.0 mm 0.00 in0.0 mm
08:30 AM 19.9°F-6.7°C 7.5°F-13.6°C 58% 2.0 mph W3.2 kmh W 2.2 mph3.5 kmh 30.60 in1036.2 mb 0.00 in0.0 mm 0.00 in0.0 mm 0.00 in0.0 mm
08:29 AM 19.9°F-6.7°C 7.5°F-13.6°C 58% 1.3 mph W2.1 kmh W 2.2 mph3.5 kmh 30.59 in1035.9 mb 0.00 in0.0 mm 0.00 in0.0 mm 0.00 in0.0 mm
08:28 AM 19.8°F-6.8°C 7.4°F-13.7°C 58% 2.2 mph W3.5 kmh W 2.2 mph3.5 kmh 30.60 in1036.2 mb 0.00 in0.0 mm 0.00 in0.0 mm 0.00 in0.0 mm
08:27 AM 19.8°F-6.8°C 7.8°F-13.4°C 59% 0.7 mph W1.1 kmh W 1.1 mph1.8 kmh 30.59 in1035.9 mb 0.00 in0.0 mm 0.00 in0.0 mm 0.00 in0.0 mm
08:26 AM 19.4°F-7.0°C 7.4°F-13.7°C 59% 0.7 mph W1.1 kmh W 1.1 mph1.8 kmh 30.60 in1036.2 mb 0.00 in0.0 mm 0.00 in0.0 mm 0.00 in0.0 mm
08:25 AM 19.4°F-7.0°C 7.4°F-13.7°C 59% 0.7 mph W1.1 kmh W 1.1 mph1.8 kmh 30.59 in1035.9 mb 0.00 in0.0 mm 0.00 in0.0 mm 0.00 in0.0 mm
08:24 AM 19.2°F-7.1°C 7.6°F-13.6°C 60% 1.1 mph W1.8 kmh W 1.1 mph1.8 kmh 30.59 in1035.9 mb 0.00 in0.0 mm 0.00 in0.0 mm 0.00 in0.0 mm
08:23 AM 19.0°F-7.2°C 7.4°F-13.7°C 60% 0.2 mph E0.3 kmh E 1.1 mph1.8 kmh 30.59 in1035.9 mb 0.00 in0.0 mm 0.00 in0.0 mm 0.00 in0.0 mm
08:22 AM 18.9°F-7.3°C 7.3°F-13.7°C 60% 0.9 mph W1.4 kmh W 1.1 mph1.8 kmh 30.60 in1036.2 mb 0.00 in0.0 mm 0.00 in0.0 mm 0.00 in0.0 mm
08:21 AM 18.9°F-7.3°C 7.7°F-13.5°C 61% 1.3 mph W2.1 kmh W 2.2 mph3.5 kmh 30.59 in1035.9 mb 0.00 in0.0 mm 0.00 in0.0 mm 0.00 in0.0 mm
08:20 AM 18.7°F-7.4°C 7.5°F-13.6°C 61% 1.1 mph W1.8 kmh W 1.1 mph1.8 kmh 30.59 in1035.9 mb 0.00 in0.0 mm 0.00 in0.0 mm 0.00 in0.0 mm
08:19 AM 18.7°F-7.4°C 7.5°F-13.6°C 61% 1.1 mph WSW1.8 kmh WSW 2.2 mph3.5 kmh 30.59 in1035.9 mb 0.00 in0.0 mm 0.00 in0.0 mm 0.00 in0.0 mm
08:18 AM 18.5°F-7.5°C 7.3°F-13.7°C 61% 2.7 mph W4.3 kmh W 3.4 mph5.5 kmh 30.59 in1035.9 mb 0.00 in0.0 mm 0.00 in0.0 mm 0.00 in0.0 mm
08:17 AM 18.0°F-7.8°C 6.9°F-13.9°C 61% Calm Calm -- 30.59 in1035.9 mb 0.00 in0.0 mm 0.00 in0.0 mm 0.00 in0.0 mm
08:15 AM 17.8°F-7.9°C 6.7°F-14.1°C 61% 0.9 mph W1.4 kmh W 2.2 mph3.5 kmh 30.58 in1035.6 mb 0.00 in0.0 mm 0.00 in0.0 mm 0.00 in0.0 mm
08:14 AM 17.6°F-8.0°C 7.2°F-13.8°C 63% 0.2 mph W0.3 kmh W 1.1 mph1.8 kmh 30.59 in1035.9 mb 0.00 in0.0 mm 0.00 in0.0 mm 0.00 in0.0 mm
08:13 AM 17.4°F-8.1°C 6.6°F-14.1°C 62% 2.5 mph W4.0 kmh W 3.4 mph5.5 kmh 30.59 in1035.9 mb 0.00 in0.0 mm 0.00 in0.0 mm 0.00 in0.0 mm
08:12 AM 17.4°F-8.1°C 6.6°F-14.1°C 62% 3.6 mph W5.8 kmh W 4.5 mph7.2 kmh 30.59 in1035.9 mb 0.00 in0.0 mm 0.00 in0.0 mm 0.00 in0.0 mm
08:11 AM 17.2°F-8.2°C 6.4°F-14.2°C 62% 2.9 mph W4.7 kmh W 3.4 mph5.5 kmh 30.58 in1035.6 mb 0.00 in0.0 mm 0.00 in0.0 mm 0.00 in0.0 mm
08:10 AM 16.9°F-8.4°C 6.5°F-14.2°C 63% 0.4 mph W0.6 kmh W 1.1 mph1.8 kmh 30.59 in1035.9 mb 0.00 in0.0 mm 0.00 in0.0 mm 0.00 in0.0 mm
08:09 AM 16.7°F-8.5°C 6.3°F-14.3°C 63% 0.7 mph W1.1 kmh W 1.1 mph1.8 kmh 30.58 in1035.6 mb 0.00 in0.0 mm 0.00 in0.0 mm 0.00 in0.0 mm
08:08 AM 16.3°F-8.7°C 5.9°F-14.5°C 63% 0.9 mph W1.4 kmh W 1.1 mph1.8 kmh 30.59 in1035.9 mb 0.00 in0.0 mm 0.00 in0.0 mm 0.00 in0.0 mm
08:07 AM 16.2°F-8.8°C 6.2°F-14.3°C 64% 1.6 mph W2.6 kmh W 2.2 mph3.5 kmh 30.59 in1035.9 mb 0.00 in0.0 mm 0.00 in0.0 mm 0.00 in0.0 mm
08:06 AM 16.0°F-8.9°C 6.3°F-14.3°C 65% 1.1 mph W1.8 kmh W 1.1 mph1.8 kmh 30.59 in1035.9 mb 0.00 in0.0 mm 0.00 in0.0 mm 0.00 in0.0 mm
08:05 AM 16.0°F-8.9°C 6.3°F-14.3°C 65% 2.9 mph W4.7 kmh W 3.4 mph5.5 kmh 30.59 in1035.9 mb 0.00 in0.0 mm 0.00 in0.0 mm 0.00 in0.0 mm
08:04 AM 15.8°F-9.0°C 5.8°F-14.6°C 64% 2.5 mph W4.0 kmh W 3.4 mph5.5 kmh 30.59 in1035.9 mb 0.00 in0.0 mm 0.00 in0.0 mm 0.00 in0.0 mm
08:03 AM 15.8°F-9.0°C 6.2°F-14.3°C 65% 3.6 mph W5.8 kmh W 4.5 mph7.2 kmh 30.59 in1035.9 mb 0.00 in0.0 mm 0.00 in0.0 mm 0.00 in0.0 mm
08:02 AM 15.6°F-9.1°C 6.0°F-14.4°C 65% 3.1 mph WNW5.0 kmh WNW 4.5 mph7.2 kmh 30.59 in1035.9 mb 0.00 in0.0 mm 0.00 in0.0 mm 0.00 in0.0 mm
08:01 AM 15.4°F-9.2°C 5.8°F-14.6°C 65% 1.1 mph WNW1.8 kmh WNW 1.1 mph1.8 kmh 30.59 in1035.9 mb 0.00 in0.0 mm 0.00 in0.0 mm 0.00 in0.0 mm
08:00 AM 15.4°F-9.2°C 5.8°F-14.6°C 65% 0.9 mph WNW1.4 kmh WNW 1.1 mph1.8 kmh 30.59 in1035.9 mb 0.00 in0.0 mm 0.00 in0.0 mm 0.00 in0.0 mm
07:58 AM 15.3°F-9.3°C 5.7°F-14.6°C 65% 1.1 mph W1.8 kmh W 1.1 mph1.8 kmh 30.59 in1035.9 mb 0.00 in0.0 mm 0.00 in0.0 mm 0.00 in0.0 mm
07:57 AM 15.3°F-9.3°C 6.0°F-14.4°C 66% 1.6 mph W2.6 kmh W 2.2 mph3.5 kmh 30.58 in1035.6 mb 0.00 in0.0 mm 0.00 in0.0 mm 0.00 in0.0 mm
07:56 AM 15.3°F-9.3°C 5.7°F-14.6°C 65% 2.0 mph W3.2 kmh W 2.2 mph3.5 kmh 30.59 in1035.9 mb 0.00 in0.0 mm 0.00 in0.0 mm 0.00 in0.0 mm
07:55 AM 15.1°F-9.4°C 5.8°F-14.6°C 66% 2.9 mph W4.7 kmh W 3.4 mph5.5 kmh 30.59 in1035.9 mb 0.00 in0.0 mm 0.00 in0.0 mm 0.00 in0.0 mm
07:54 AM 15.1°F-9.4°C 5.8°F-14.6°C 66% 2.2 mph W3.5 kmh W 3.4 mph5.5 kmh 30.59 in1035.9 mb 0.00 in0.0 mm 0.00 in0.0 mm 0.00 in0.0 mm
07:53 AM 15.1°F-9.4°C 5.8°F-14.6°C 66% 0.2 mph W0.3 kmh W 1.1 mph1.8 kmh 30.59 in1035.9 mb 0.00 in0.0 mm 0.00 in0.0 mm 0.00 in0.0 mm
07:52 AM 15.1°F-9.4°C 5.8°F-14.6°C 66% 0.9 mph W1.4 kmh W 1.1 mph1.8 kmh 30.58 in1035.6 mb 0.00 in0.0 mm 0.00 in0.0 mm 0.00 in0.0 mm
07:51 AM 15.1°F-9.4°C 5.8°F-14.6°C 66% 0.9 mph W1.4 kmh W 1.1 mph1.8 kmh 30.58 in1035.6 mb 0.00 in0.0 mm 0.00 in0.0 mm 0.00 in0.0 mm
07:50 AM 15.1°F-9.4°C 5.8°F-14.6°C 66% 2.0 mph W3.2 kmh W 2.2 mph3.5 kmh 30.58 in1035.6 mb 0.00 in0.0 mm 0.00 in0.0 mm 0.00 in0.0 mm
07:48 AM 14.9°F-9.5°C 5.6°F-14.7°C 66% 2.2 mph W3.5 kmh W 3.4 mph5.5 kmh 30.57 in1035.2 mb 0.00 in0.0 mm 0.00 in0.0 mm 0.00 in0.0 mm
07:47 AM 14.9°F-9.5°C 6.0°F-14.4°C 67% 1.6 mph W2.6 kmh W 2.2 mph3.5 kmh 30.58 in1035.6 mb 0.00 in0.0 mm 0.00 in0.0 mm 0.00 in0.0 mm
07:46 AM 14.9°F-9.5°C 5.6°F-14.7°C 66% 0.4 mph W0.6 kmh W 1.1 mph1.8 kmh 30.58 in1035.6 mb 0.00 in0.0 mm 0.00 in0.0 mm 0.00 in0.0 mm
07:45 AM 14.7°F-9.6°C 5.8°F-14.6°C 67% 2.7 mph W4.3 kmh W 3.4 mph5.5 kmh 30.58 in1035.6 mb 0.00 in0.0 mm 0.00 in0.0 mm 0.00 in0.0 mm
07:43 AM 14.7°F-9.6°C 5.4°F-14.8°C 66% 1.1 mph W1.8 kmh W 1.1 mph1.8 kmh 30.58 in1035.6 mb 0.00 in0.0 mm 0.00 in0.0 mm 0.00 in0.0 mm
07:42 AM 14.7°F-9.6°C 5.4°F-14.8°C 66% 1.3 mph W2.1 kmh W 2.2 mph3.5 kmh 30.57 in1035.2 mb 0.00 in0.0 mm 0.00 in0.0 mm 0.00 in0.0 mm
07:41 AM 14.7°F-9.6°C 5.4°F-14.8°C 66% 2.0 mph W3.2 kmh W 2.2 mph3.5 kmh 30.58 in1035.6 mb 0.00 in0.0 mm 0.00 in0.0 mm 0.00 in0.0 mm
07:40 AM 14.5°F-9.7°C 5.6°F-14.7°C 67% 0.7 mph W1.1 kmh W 1.1 mph1.8 kmh 30.57 in1035.2 mb 0.00 in0.0 mm 0.00 in0.0 mm 0.00 in0.0 mm
07:39 AM 14.7°F-9.6°C 5.8°F-14.6°C 67% 1.3 mph W2.1 kmh W 2.2 mph3.5 kmh 30.57 in1035.2 mb 0.00 in0.0 mm 0.00 in0.0 mm 0.00 in0.0 mm
07:38 AM 14.5°F-9.7°C 5.2°F-14.9°C 66% 1.3 mph W2.1 kmh W 2.2 mph3.5 kmh 30.58 in1035.6 mb 0.00 in0.0 mm 0.00 in0.0 mm 0.00 in0.0 mm
07:37 AM 14.5°F-9.7°C 5.2°F-14.9°C 66% 1.6 mph W2.6 kmh W 2.2 mph3.5 kmh 30.57 in1035.2 mb 0.00 in0.0 mm 0.00 in0.0 mm 0.00 in0.0 mm
07:36 AM 14.5°F-9.7°C 5.2°F-14.9°C 66% 0.9 mph W1.4 kmh W 1.1 mph1.8 kmh 30.58 in1035.6 mb 0.00 in0.0 mm 0.00 in0.0 mm 0.00 in0.0 mm
07:35 AM 14.5°F-9.7°C 5.2°F-14.9°C 66% 1.8 mph W2.9 kmh W 2.2 mph3.5 kmh 30.57 in1035.2 mb 0.00 in0.0 mm 0.00 in0.0 mm 0.00 in0.0 mm
07:34 AM 14.4°F-9.8°C 5.1°F-14.9°C 66% 2.9 mph W4.7 kmh W 3.4 mph5.5 kmh 30.57 in1035.2 mb 0.00 in0.0 mm 0.00 in0.0 mm 0.00 in0.0 mm
07:33 AM 14.4°F-9.8°C 5.1°F-14.9°C 66% 1.6 mph W2.6 kmh W 2.2 mph3.5 kmh 30.57 in1035.2 mb 0.00 in0.0 mm 0.00 in0.0 mm 0.00 in0.0 mm
07:32 AM 14.4°F-9.8°C 5.1°F-14.9°C 66% 1.6 mph W2.6 kmh W 2.2 mph3.5 kmh 30.57 in1035.2 mb 0.00 in0.0 mm 0.00 in0.0 mm 0.00 in0.0 mm
07:31 AM 14.4°F-9.8°C 5.1°F-14.9°C 66% 3.1 mph WSW5.0 kmh WSW 4.5 mph7.2 kmh 30.57 in1035.2 mb 0.00 in0.0 mm 0.00 in0.0 mm 0.00 in0.0 mm
07:30 AM 14.4°F-9.8°C 5.1°F-14.9°C 66% Calm Calm -- 30.57 in1035.2 mb 0.00 in0.0 mm 0.00 in0.0 mm 0.00 in0.0 mm
07:28 AM 14.4°F-9.8°C 5.1°F-14.9°C 66% Calm Calm -- 30.57 in1035.2 mb 0.00 in0.0 mm 0.00 in0.0 mm 0.00 in0.0 mm
07:27 AM 14.4°F-9.8°C 5.1°F-14.9°C 66% 0.7 mph W1.1 kmh W 1.1 mph1.8 kmh 30.57 in1035.2 mb 0.00 in0.0 mm 0.00 in0.0 mm 0.00 in0.0 mm
07:26 AM 14.4°F-9.8°C 5.1°F-14.9°C 66% 0.2 mph W0.3 kmh W 1.1 mph1.8 kmh 30.57 in1035.2 mb 0.00 in0.0 mm 0.00 in0.0 mm 0.00 in0.0 mm
07:25 AM 14.4°F-9.8°C 5.1°F-14.9°C 66% 1.3 mph W2.1 kmh W 2.2 mph3.5 kmh 30.57 in1035.2 mb 0.00 in0.0 mm 0.00 in0.0 mm 0.00 in0.0 mm
07:24 AM 14.4°F-9.8°C 5.1°F-14.9°C 66% 0.2 mph W0.3 kmh W 1.1 mph1.8 kmh 30.57 in1035.2 mb 0.00 in0.0 mm 0.00 in0.0 mm 0.00 in0.0 mm
07:23 AM 14.2°F-9.9°C 4.6°F-15.2°C 65% 1.1 mph W1.8 kmh W 2.2 mph3.5 kmh 30.57 in1035.2 mb 0.00 in0.0 mm 0.00 in0.0 mm 0.00 in0.0 mm
07:22 AM 14.2°F-9.9°C 4.6°F-15.2°C 65% 1.1 mph W1.8 kmh W 1.1 mph1.8 kmh 30.57 in1035.2 mb 0.00 in0.0 mm 0.00 in0.0 mm 0.00 in0.0 mm
07:21 AM 14.2°F-9.9°C 5.0°F-15.0°C 66% 1.1 mph W1.8 kmh W 1.1 mph1.8 kmh 30.58 in1035.6 mb 0.00 in0.0 mm 0.00 in0.0 mm 0.00 in0.0 mm
07:19 AM 14.2°F-9.9°C 5.0°F-15.0°C 66% 3.4 mph W5.5 kmh W 4.5 mph7.2 kmh 30.57 in1035.2 mb 0.00 in0.0 mm 0.00 in0.0 mm 0.00 in0.0 mm
07:17 AM 14.2°F-9.9°C 5.0°F-15.0°C 66% 0.7 mph W1.1 kmh W 1.1 mph1.8 kmh 30.56 in1034.9 mb 0.00 in0.0 mm 0.00 in0.0 mm 0.00 in0.0 mm
07:16 AM 14.2°F-9.9°C 5.0°F-15.0°C 66% 1.1 mph W1.8 kmh W 1.1 mph1.8 kmh 30.57 in1035.2 mb 0.00 in0.0 mm 0.00 in0.0 mm 0.00 in0.0 mm
07:15 AM 14.2°F-9.9°C 5.0°F-15.0°C 66% 1.3 mph W2.1 kmh W 2.2 mph3.5 kmh 30.57 in1035.2 mb 0.00 in0.0 mm 0.00 in0.0 mm 0.00 in0.0 mm
07:14 AM 14.2°F-9.9°C 4.6°F-15.2°C 65% 1.1 mph W1.8 kmh W 1.1 mph1.8 kmh 30.57 in1035.2 mb 0.00 in0.0 mm 0.00 in0.0 mm 0.00 in0.0 mm
07:13 AM 14.2°F-9.9°C 5.0°F-15.0°C 66% 2.2 mph W3.5 kmh W 2.2 mph3.5 kmh 30.56 in1034.9 mb 0.00 in0.0 mm 0.00 in0.0 mm 0.00 in0.0 mm
07:12 AM 14.2°F-9.9°C 5.0°F-15.0°C 66% 3.4 mph W5.5 kmh W 4.5 mph7.2 kmh 30.57 in1035.2 mb 0.00 in0.0 mm 0.00 in0.0 mm 0.00 in0.0 mm
07:11 AM 14.4°F-9.8°C 5.1°F-14.9°C 66% 1.3 mph W2.1 kmh W 2.2 mph3.5 kmh 30.57 in1035.2 mb 0.00 in0.0 mm 0.00 in0.0 mm 0.00 in0.0 mm
07:10 AM 14.4°F-9.8°C 5.1°F-14.9°C 66% 1.1 mph W1.8 kmh W 1.1 mph1.8 kmh 30.57 in1035.2 mb 0.00 in0.0 mm 0.00 in0.0 mm 0.00 in0.0 mm
07:09 AM 14.4°F-9.8°C 5.1°F-14.9°C 66% 0.7 mph WNW1.1 kmh WNW 1.1 mph1.8 kmh 30.57 in1035.2 mb 0.00 in0.0 mm 0.00 in0.0 mm 0.00 in0.0 mm
07:08 AM 14.2°F-9.9°C 5.0°F-15.0°C 66% 1.6 mph W2.6 kmh W 2.2 mph3.5 kmh 30.57 in1035.2 mb 0.00 in0.0 mm 0.00 in0.0 mm 0.00 in0.0 mm
07:07 AM 14.2°F-9.9°C 4.6°F-15.2°C 65% 2.7 mph W4.3 kmh W 3.4 mph5.5 kmh 30.57 in1035.2 mb 0.00 in0.0 mm 0.00 in0.0 mm 0.00 in0.0 mm
07:06 AM 14.2°F-9.9°C 5.0°F-15.0°C 66% 2.0 mph W3.2 kmh W 3.4 mph5.5 kmh 30.57 in1035.2 mb 0.00 in0.0 mm 0.00 in0.0 mm 0.00 in0.0 mm
07:05 AM 14.2°F-9.9°C 5.0°F-15.0°C 66% 2.7 mph W4.3 kmh W 3.4 mph5.5 kmh 30.57 in1035.2 mb 0.00 in0.0 mm 0.00 in0.0 mm 0.00 in0.0 mm
07:03 AM 14.2°F-9.9°C 5.0°F-15.0°C 66% 0.9 mph W1.4 kmh W 1.1 mph1.8 kmh 30.56 in1034.9 mb 0.00 in0.0 mm 0.00 in0.0 mm 0.00 in0.0 mm
07:02 AM 14.2°F-9.9°C 4.6°F-15.2°C 65% 0.7 mph W1.1 kmh W 1.1 mph1.8 kmh 30.57 in1035.2 mb 0.00 in0.0 mm 0.00 in0.0 mm 0.00 in0.0 mm
07:01 AM 14.2°F-9.9°C 4.6°F-15.2°C 65% 2.0 mph W3.2 kmh W 3.4 mph5.5 kmh 30.57 in1035.2 mb 0.00 in0.0 mm 0.00 in0.0 mm 0.00 in0.0 mm
07:00 AM 14.2°F-9.9°C 4.6°F-15.2°C 65% 1.6 mph W2.6 kmh W 2.2 mph3.5 kmh 30.57 in1035.2 mb 0.00 in0.0 mm 0.00 in0.0 mm 0.00 in0.0 mm
06:59 AM 14.2°F-9.9°C 4.6°F-15.2°C 65% 1.3 mph W2.1 kmh W 2.2 mph3.5 kmh 30.57 in1035.2 mb 0.00 in0.0 mm 0.00 in0.0 mm 0.00 in0.0 mm
06:58 AM 14.2°F-9.9°C 4.6°F-15.2°C 65% 1.3 mph W2.1 kmh W 2.2 mph3.5 kmh 30.57 in1035.2 mb 0.00 in0.0 mm 0.00 in0.0 mm 0.00 in0.0 mm
06:57 AM 14.2°F-9.9°C 4.6°F-15.2°C 65% 2.5 mph W4.0 kmh W 3.4 mph5.5 kmh 30.56 in1034.9 mb 0.00 in0.0 mm 0.00 in0.0 mm 0.00 in0.0 mm
06:56 AM 14.0°F-10.0°C 4.4°F-15.3°C 65% 2.9 mph W4.7 kmh W 3.4 mph5.5 kmh 30.56 in1034.9 mb 0.00 in0.0 mm 0.00 in0.0 mm 0.00 in0.0 mm
06:55 AM 14.0°F-10.0°C 4.4°F-15.3°C 65% 2.9 mph WNW4.7 kmh WNW 3.4 mph5.5 kmh 30.57 in1035.2 mb 0.00 in0.0 mm 0.00 in0.0 mm 0.00 in0.0 mm
06:54 AM 14.0°F-10.0°C 4.4°F-15.3°C 65% 2.2 mph W3.5 kmh W 3.4 mph5.5 kmh 30.57 in1035.2 mb 0.00 in0.0 mm 0.00 in0.0 mm 0.00 in0.0 mm
06:53 AM 14.0°F-10.0°C 4.4°F-15.3°C 65% 0.4 mph W0.6 kmh W 1.1 mph1.8 kmh 30.56 in1034.9 mb 0.00 in0.0 mm 0.00 in0.0 mm 0.00 in0.0 mm
06:52 AM 14.0°F-10.0°C 4.4°F-15.3°C 65% 1.8 mph W2.9 kmh W 2.2 mph3.5 kmh 30.56 in1034.9 mb 0.00 in0.0 mm 0.00 in0.0 mm 0.00 in0.0 mm
06:51 AM 14.0°F-10.0°C 4.8°F-15.1°C 66% 2.9 mph W4.7 kmh W 3.4 mph5.5 kmh 30.57 in1035.2 mb 0.00 in0.0 mm 0.00 in0.0 mm 0.00 in0.0 mm
06:50 AM 14.0°F-10.0°C 4.4°F-15.3°C 65% Calm Calm -- 30.57 in1035.2 mb 0.00 in0.0 mm 0.00 in0.0 mm 0.00 in0.0 mm
06:49 AM 14.0°F-10.0°C 4.4°F-15.3°C 65% 0.2 mph W0.3 kmh W 1.1 mph1.8 kmh 30.56 in1034.9 mb 0.00 in0.0 mm 0.00 in0.0 mm 0.00 in0.0 mm
06:48 AM 14.0°F-10.0°C 4.4°F-15.3°C 65% 0.2 mph W0.3 kmh W 1.1 mph1.8 kmh 30.56 in1034.9 mb 0.00 in0.0 mm 0.00 in0.0 mm 0.00 in0.0 mm
06:47 AM 14.0°F-10.0°C 4.1°F-15.5°C 64% 1.3 mph W2.1 kmh W 2.2 mph3.5 kmh 30.57 in1035.2 mb 0.00 in0.0 mm 0.00 in0.0 mm 0.00 in0.0 mm
06:46 AM 14.0°F-10.0°C 4.1°F-15.5°C 64% Calm Calm -- 30.57 in1035.2 mb 0.00 in0.0 mm 0.00 in0.0 mm 0.00 in0.0 mm
06:45 AM 14.0°F-10.0°C 4.1°F-15.5°C 64% Calm Calm -- 30.56 in1034.9 mb 0.00 in0.0 mm 0.00 in0.0 mm 0.00 in0.0 mm
06:44 AM 14.0°F-10.0°C 4.1°F-15.5°C 64% Calm Calm -- 30.56 in1034.9 mb 0.00 in0.0 mm 0.00 in0.0 mm 0.00 in0.0 mm
06:43 AM 14.0°F-10.0°C 4.1°F-15.5°C 64% 0.4 mph W0.6 kmh W 1.1 mph1.8 kmh 30.56 in1034.9 mb 0.00 in0.0 mm 0.00 in0.0 mm 0.00 in0.0 mm
06:42 AM 14.0°F-10.0°C 4.4°F-15.3°C 65% 1.3 mph W2.1 kmh W 2.2 mph3.5 kmh 30.56 in1034.9 mb 0.00 in0.0 mm 0.00 in0.0 mm 0.00 in0.0 mm
06:41 AM 14.0°F-10.0°C 4.4°F-15.3°C 65% 0.9 mph W1.4 kmh W 1.1 mph1.8 kmh 30.56 in1034.9 mb 0.00 in0.0 mm 0.00 in0.0 mm 0.00 in0.0 mm
06:40 AM 14.0°F-10.0°C 4.1°F-15.5°C 64% 1.8 mph W2.9 kmh W 2.2 mph3.5 kmh 30.56 in1034.9 mb 0.00 in0.0 mm 0.00 in0.0 mm 0.00 in0.0 mm
06:39 AM 14.0°F-10.0°C 3.8°F-15.7°C 63% 0.2 mph W0.3 kmh W 1.1 mph1.8 kmh 30.56 in1034.9 mb 0.00 in0.0 mm 0.00 in0.0 mm 0.00 in0.0 mm
06:38 AM 14.0°F-10.0°C 3.8°F-15.7°C 63% 3.4 mph W5.5 kmh W 4.5 mph7.2 kmh 30.56 in1034.9 mb 0.00 in0.0 mm 0.00 in0.0 mm 0.00 in0.0 mm
06:37 AM 14.0°F-10.0°C 4.1°F-15.5°C 64% 2.0 mph W3.2 kmh W 3.4 mph5.5 kmh 30.56 in1034.9 mb 0.00 in0.0 mm 0.00 in0.0 mm 0.00 in0.0 mm
06:36 AM 14.0°F-10.0°C 4.1°F-15.5°C 64% 0.7 mph W1.1 kmh W 1.1 mph1.8 kmh 30.56 in1034.9 mb 0.00 in0.0 mm 0.00 in0.0 mm 0.00 in0.0 mm
06:35 AM 14.0°F-10.0°C 4.1°F-15.5°C 64% 0.4 mph W0.6 kmh W 1.1 mph1.8 kmh 30.56 in1034.9 mb 0.00 in0.0 mm 0.00 in0.0 mm 0.00 in0.0 mm
06:34 AM 14.0°F-10.0°C 3.8°F-15.7°C 63% 1.8 mph W2.9 kmh W 2.2 mph3.5 kmh 30.56 in1034.9 mb 0.00 in0.0 mm 0.00 in0.0 mm 0.00 in0.0 mm
06:33 AM 14.0°F-10.0°C 4.1°F-15.5°C 64% 0.2 mph W0.3 kmh W 1.1 mph1.8 kmh 30.55 in1034.5 mb 0.00 in0.0 mm 0.00 in0.0 mm 0.00 in0.0 mm
06:32 AM 14.0°F-10.0°C 4.1°F-15.5°C 64% Calm Calm -- 30.56 in1034.9 mb 0.00 in0.0 mm 0.00 in0.0 mm 0.00 in0.0 mm
06:31 AM 14.0°F-10.0°C 4.1°F-15.5°C 64% 0.9 mph W1.4 kmh W 1.1 mph1.8 kmh 30.56 in1034.9 mb 0.00 in0.0 mm 0.00 in0.0 mm 0.00 in0.0 mm
06:30 AM 14.0°F-10.0°C 4.1°F-15.5°C 64% 1.1 mph W1.8 kmh W 1.1 mph1.8 kmh 30.56 in1034.9 mb 0.00 in0.0 mm 0.00 in0.0 mm 0.00 in0.0 mm
06:29 AM 14.0°F-10.0°C 4.1°F-15.5°C 64% 1.3 mph W2.1 kmh W 2.2 mph3.5 kmh 30.56 in1034.9 mb 0.00 in0.0 mm 0.00 in0.0 mm 0.00 in0.0 mm
06:28 AM 14.0°F-10.0°C 4.1°F-15.5°C 64% 2.2 mph WNW3.5 kmh WNW 2.2 mph3.5 kmh 30.56 in1034.9 mb 0.00 in0.0 mm 0.00 in0.0 mm 0.00 in0.0 mm
06:27 AM 13.8°F-10.1°C 4.2°F-15.4°C 65% 1.3 mph WNW2.1 kmh WNW 2.2 mph3.5 kmh 30.56 in1034.9 mb 0.00 in0.0 mm 0.00 in0.0 mm 0.00 in0.0 mm
06:25 AM 13.8°F-10.1°C 4.2°F-15.4°C 65% 2.2 mph WNW3.5 kmh WNW 2.2 mph3.5 kmh 30.55 in1034.5 mb 0.00 in0.0 mm 0.00 in0.0 mm 0.00 in0.0 mm
06:24 AM 13.6°F-10.2°C 4.1°F-15.5°C 65% 2.9 mph W4.7 kmh W 3.4 mph5.5 kmh 30.56 in1034.9 mb 0.00 in0.0 mm 0.00 in0.0 mm 0.00 in0.0 mm
06:23 AM 13.5°F-10.3°C 4.0°F-15.6°C 65% 3.4 mph W5.5 kmh W 4.5 mph7.2 kmh 30.55 in1034.5 mb 0.00 in0.0 mm 0.00 in0.0 mm 0.00 in0.0 mm
06:22 AM 13.5°F-10.3°C 4.0°F-15.6°C 65% 1.3 mph WNW2.1 kmh WNW 2.2 mph3.5 kmh 30.56 in1034.9 mb 0.00 in0.0 mm 0.00 in0.0 mm 0.00 in0.0 mm
06:21 AM 13.3°F-10.4°C 4.1°F-15.5°C 66% 2.0 mph WNW3.2 kmh WNW 2.2 mph3.5 kmh 30.55 in1034.5 mb 0.00 in0.0 mm 0.00 in0.0 mm 0.00 in0.0 mm
06:20 AM 13.1°F-10.5°C 4.2°F-15.4°C 67% 1.8 mph WNW2.9 kmh WNW 2.2 mph3.5 kmh 30.55 in1034.5 mb 0.00 in0.0 mm 0.00 in0.0 mm 0.00 in0.0 mm
06:19 AM 13.1°F-10.5°C 4.2°F-15.4°C 67% 1.1 mph WNW1.8 kmh WNW 1.1 mph1.8 kmh 30.55 in1034.5 mb 0.00 in0.0 mm 0.00 in0.0 mm 0.00 in0.0 mm
06:18 AM 12.9°F-10.6°C 3.7°F-15.7°C 66% 1.3 mph WNW2.1 kmh WNW 2.2 mph3.5 kmh 30.55 in1034.5 mb 0.00 in0.0 mm 0.00 in0.0 mm 0.00 in0.0 mm
06:17 AM 12.9°F-10.6°C 4.4°F-15.3°C 68% 2.5 mph WNW4.0 kmh WNW 3.4 mph5.5 kmh 30.55 in1034.5 mb 0.00 in0.0 mm 0.00 in0.0 mm 0.00 in0.0 mm
06:16 AM 12.9°F-10.6°C 4.4°F-15.3°C 68% 0.9 mph WNW1.4 kmh WNW 1.1 mph1.8 kmh 30.55 in1034.5 mb 0.00 in0.0 mm 0.00 in0.0 mm 0.00 in0.0 mm
06:15 AM 12.9°F-10.6°C 4.0°F-15.6°C 67% Calm Calm -- 30.55 in1034.5 mb 0.00 in0.0 mm 0.00 in0.0 mm 0.00 in0.0 mm
06:14 AM 12.9°F-10.6°C 4.4°F-15.3°C 68% Calm Calm -- 30.55 in1034.5 mb 0.00 in0.0 mm 0.00 in0.0 mm 0.00 in0.0 mm
06:13 AM 12.9°F-10.6°C 4.4°F-15.3°C 68% Calm Calm -- 30.56 in1034.9 mb 0.00 in0.0 mm 0.00 in0.0 mm 0.00 in0.0 mm
06:12 AM 12.9°F-10.6°C 4.4°F-15.3°C 68% Calm Calm -- 30.55 in1034.5 mb 0.00 in0.0 mm 0.00 in0.0 mm 0.00 in0.0 mm
06:11 AM 12.9°F-10.6°C 4.4°F-15.3°C 68% Calm Calm -- 30.54 in1034.2 mb 0.00 in0.0 mm 0.00 in0.0 mm 0.00 in0.0 mm
06:10 AM 13.1°F-10.5°C 4.6°F-15.2°C 68% Calm Calm -- 30.55 in1034.5 mb 0.00 in0.0 mm 0.00 in0.0 mm 0.00 in0.0 mm
06:09 AM 13.1°F-10.5°C 4.6°F-15.2°C 68% Calm Calm -- 30.55 in1034.5 mb 0.00 in0.0 mm 0.00 in0.0 mm 0.00 in0.0 mm
06:08 AM 13.1°F-10.5°C 4.2°F-15.4°C 67% Calm Calm -- 30.55 in1034.5 mb 0.00 in0.0 mm 0.00 in0.0 mm 0.00 in0.0 mm
06:07 AM 13.1°F-10.5°C 4.2°F-15.4°C 67% Calm Calm -- 30.54 in1034.2 mb 0.00 in0.0 mm 0.00 in0.0 mm 0.00 in0.0 mm
06:06 AM 13.1°F-10.5°C 4.2°F-15.4°C 67% Calm Calm -- 30.54 in1034.2 mb 0.00 in0.0 mm 0.00 in0.0 mm 0.00 in0.0 mm
06:04 AM 13.1°F-10.5°C 4.6°F-15.2°C 68% 1.1 mph WNW1.8 kmh WNW 1.1 mph1.8 kmh 30.54 in1034.2 mb 0.00 in0.0 mm 0.00 in0.0 mm 0.00 in0.0 mm
06:03 AM 13.1°F-10.5°C 4.2°F-15.4°C 67% Calm Calm -- 30.54 in1034.2 mb 0.00 in0.0 mm 0.00 in0.0 mm 0.00 in0.0 mm
06:01 AM 13.3°F-10.4°C 4.4°F-15.3°C 67% Calm Calm -- 30.54 in1034.2 mb 0.00 in0.0 mm 0.00 in0.0 mm 0.00 in0.0 mm
06:00 AM 13.3°F-10.4°C 4.4°F-15.3°C 67% Calm Calm -- 30.54 in1034.2 mb 0.00 in0.0 mm 0.00 in0.0 mm 0.00 in0.0 mm
05:59 AM 13.3°F-10.4°C 4.4°F-15.3°C 67% Calm Calm -- 30.53 in1033.9 mb 0.00 in0.0 mm 0.00 in0.0 mm 0.00 in0.0 mm
05:58 AM 13.3°F-10.4°C 4.4°F-15.3°C 67% Calm Calm -- 30.53 in1033.9 mb 0.00 in0.0 mm 0.00 in0.0 mm 0.00 in0.0 mm
05:57 AM 13.5°F-10.3°C 4.3°F-15.4°C 66% Calm Calm -- 30.53 in1033.9 mb 0.00 in0.0 mm 0.00 in0.0 mm 0.00 in0.0 mm
05:56 AM 13.5°F-10.3°C 4.3°F-15.4°C 66% Calm Calm -- 30.53 in1033.9 mb 0.00 in0.0 mm 0.00 in0.0 mm 0.00 in0.0 mm
05:55 AM 13.5°F-10.3°C 4.3°F-15.4°C 66% 0.7 mph WNW1.1 kmh WNW 1.1 mph1.8 kmh 30.54 in1034.2 mb 0.00 in0.0 mm 0.00 in0.0 mm 0.00 in0.0 mm
05:54 AM 13.6°F-10.2°C 4.7°F-15.2°C 67% 0.7 mph WNW1.1 kmh WNW 1.1 mph1.8 kmh 30.53 in1033.9 mb 0.00 in0.0 mm 0.00 in0.0 mm 0.00 in0.0 mm
05:53 AM 13.6°F-10.2°C 4.7°F-15.2°C 67% 0.9 mph WNW1.4 kmh WNW 1.1 mph1.8 kmh 30.53 in1033.9 mb 0.00 in0.0 mm 0.00 in0.0 mm 0.00 in0.0 mm
05:52 AM 13.8°F-10.1°C 4.6°F-15.2°C 66% 0.9 mph WNW1.4 kmh WNW 1.1 mph1.8 kmh 30.53 in1033.9 mb 0.00 in0.0 mm 0.00 in0.0 mm 0.00 in0.0 mm
05:51 AM 13.8°F-10.1°C 4.6°F-15.2°C 66% 0.9 mph WNW1.4 kmh WNW 1.1 mph1.8 kmh 30.53 in1033.9 mb 0.00 in0.0 mm 0.00 in0.0 mm 0.00 in0.0 mm
05:50 AM 13.8°F-10.1°C 4.6°F-15.2°C 66% 1.1 mph WNW1.8 kmh WNW 1.1 mph1.8 kmh 30.52 in1033.5 mb 0.00 in0.0 mm 0.00 in0.0 mm 0.00 in0.0 mm
05:49 AM 13.8°F-10.1°C 4.6°F-15.2°C 66% 1.1 mph WNW1.8 kmh WNW 1.1 mph1.8 kmh 30.53 in1033.9 mb 0.00 in0.0 mm 0.00 in0.0 mm 0.00 in0.0 mm
05:48 AM 13.8°F-10.1°C 4.6°F-15.2°C 66% 2.5 mph WNW4.0 kmh WNW 3.4 mph5.5 kmh 30.53 in1033.9 mb 0.00 in0.0 mm 0.00 in0.0 mm 0.00 in0.0 mm
05:47 AM 13.8°F-10.1°C 4.6°F-15.2°C 66% Calm Calm -- 30.52 in1033.5 mb 0.00 in0.0 mm 0.00 in0.0 mm 0.00 in0.0 mm
05:46 AM 13.8°F-10.1°C 4.6°F-15.2°C 66% 0.9 mph W1.4 kmh W 1.1 mph1.8 kmh 30.52 in1033.5 mb 0.00 in0.0 mm 0.00 in0.0 mm 0.00 in0.0 mm
05:45 AM 14.0°F-10.0°C 4.4°F-15.3°C 65% 0.4 mph W0.6 kmh W 1.1 mph1.8 kmh 30.52 in1033.5 mb 0.00 in0.0 mm 0.00 in0.0 mm 0.00 in0.0 mm
05:44 AM 14.0°F-10.0°C 4.4°F-15.3°C 65% 0.4 mph W0.6 kmh W 1.1 mph1.8 kmh 30.53 in1033.9 mb 0.00 in0.0 mm 0.00 in0.0 mm 0.00 in0.0 mm
05:43 AM 14.0°F-10.0°C 4.8°F-15.1°C 66% 0.2 mph W0.3 kmh W 1.1 mph1.8 kmh 30.52 in1033.5 mb 0.00 in0.0 mm 0.00 in0.0 mm 0.00 in0.0 mm
05:42 AM 14.0°F-10.0°C 4.4°F-15.3°C 65% 1.1 mph W1.8 kmh W 1.1 mph1.8 kmh 30.52 in1033.5 mb 0.00 in0.0 mm 0.00 in0.0 mm 0.00 in0.0 mm
05:41 AM 14.2°F-9.9°C 5.0°F-15.0°C 66% 0.9 mph W1.4 kmh W 1.1 mph1.8 kmh 30.52 in1033.5 mb 0.00 in0.0 mm 0.00 in0.0 mm 0.00 in0.0 mm
05:39 AM 14.2°F-9.9°C 5.0°F-15.0°C 66% Calm Calm -- 30.53 in1033.9 mb 0.00 in0.0 mm 0.00 in0.0 mm 0.00 in0.0 mm
05:38 AM 14.2°F-9.9°C 4.6°F-15.2°C 65% Calm Calm -- 30.52 in1033.5 mb 0.00 in0.0 mm 0.00 in0.0 mm 0.00 in0.0 mm
05:37 AM 14.2°F-9.9°C 5.0°F-15.0°C 66% 1.8 mph W2.9 kmh W 2.2 mph3.5 kmh 30.52 in1033.5 mb 0.00 in0.0 mm 0.00 in0.0 mm 0.00 in0.0 mm
05:36 AM 14.2°F-9.9°C 5.0°F-15.0°C 66% 1.6 mph W2.6 kmh W 2.2 mph3.5 kmh 30.52 in1033.5 mb 0.00 in0.0 mm 0.00 in0.0 mm 0.00 in0.0 mm
05:35 AM 14.2°F-9.9°C 5.0°F-15.0°C 66% 1.1 mph W1.8 kmh W 1.1 mph1.8 kmh 30.52 in1033.5 mb 0.00 in0.0 mm 0.00 in0.0 mm 0.00 in0.0 mm
05:34 AM 14.2°F-9.9°C 5.0°F-15.0°C 66% 1.3 mph W2.1 kmh W 2.2 mph3.5 kmh 30.52 in1033.5 mb 0.00 in0.0 mm 0.00 in0.0 mm 0.00 in0.0 mm
05:33 AM 14.2°F-9.9°C 5.0°F-15.0°C 66% 2.0 mph W3.2 kmh W 2.2 mph3.5 kmh 30.51 in1033.2 mb 0.00 in0.0 mm 0.00 in0.0 mm 0.00 in0.0 mm
05:31 AM 14.2°F-9.9°C 4.6°F-15.2°C 65% 3.1 mph W5.0 kmh W 3.4 mph5.5 kmh 30.51 in1033.2 mb 0.00 in0.0 mm 0.00 in0.0 mm 0.00 in0.0 mm
05:30 AM 14.2°F-9.9°C 5.0°F-15.0°C 66% 0.7 mph W1.1 kmh W 1.1 mph1.8 kmh 30.51 in1033.2 mb 0.00 in0.0 mm 0.00 in0.0 mm 0.00 in0.0 mm
05:29 AM 14.2°F-9.9°C 5.0°F-15.0°C 66% 1.3 mph W2.1 kmh W 2.2 mph3.5 kmh 30.51 in1033.2 mb 0.00 in0.0 mm 0.00 in0.0 mm 0.00 in0.0 mm
05:28 AM 14.2°F-9.9°C 5.0°F-15.0°C 66% 3.4 mph W5.5 kmh W 4.5 mph7.2 kmh 30.51 in1033.2 mb 0.00 in0.0 mm 0.00 in0.0 mm 0.00 in0.0 mm
05:27 AM 14.2°F-9.9°C 5.0°F-15.0°C 66% 1.8 mph W2.9 kmh W 2.2 mph3.5 kmh 30.50 in1032.8 mb 0.00 in0.0 mm 0.00 in0.0 mm 0.00 in0.0 mm
05:26 AM 14.2°F-9.9°C 5.0°F-15.0°C 66% 1.1 mph W1.8 kmh W 1.1 mph1.8 kmh 30.51 in1033.2 mb 0.00 in0.0 mm 0.00 in0.0 mm 0.00 in0.0 mm
05:25 AM 14.2°F-9.9°C 5.0°F-15.0°C 66% 2.7 mph W4.3 kmh W 3.4 mph5.5 kmh 30.50 in1032.8 mb 0.00 in0.0 mm 0.00 in0.0 mm 0.00 in0.0 mm
05:24 AM 14.2°F-9.9°C 5.0°F-15.0°C 66% 0.2 mph W0.3 kmh W 1.1 mph1.8 kmh 30.50 in1032.8 mb 0.00 in0.0 mm 0.00 in0.0 mm 0.00 in0.0 mm
05:23 AM 14.2°F-9.9°C 5.0°F-15.0°C 66% 1.3 mph W2.1 kmh W 2.2 mph3.5 kmh 30.50 in1032.8 mb 0.00 in0.0 mm 0.00 in0.0 mm 0.00 in0.0 mm
05:22 AM 14.2°F-9.9°C 5.0°F-15.0°C 66% 0.7 mph W1.1 kmh W 1.1 mph1.8 kmh 30.50 in1032.8 mb 0.00 in0.0 mm 0.00 in0.0 mm 0.00 in0.0 mm
05:21 AM 14.2°F-9.9°C 5.0°F-15.0°C 66% 0.9 mph W1.4 kmh W 1.1 mph1.8 kmh 30.49 in1032.5 mb 0.00 in0.0 mm 0.00 in0.0 mm 0.00 in0.0 mm
05:20 AM 14.2°F-9.9°C 4.6°F-15.2°C 65% 2.5 mph W4.0 kmh W 3.4 mph5.5 kmh 30.49 in1032.5 mb 0.00 in0.0 mm 0.00 in0.0 mm 0.00 in0.0 mm
05:19 AM 14.2°F-9.9°C 4.6°F-15.2°C 65% 3.1 mph W5.0 kmh W 4.5 mph7.2 kmh 30.50 in1032.8 mb 0.00 in0.0 mm 0.00 in0.0 mm 0.00 in0.0 mm
05:18 AM 14.2°F-9.9°C 4.6°F-15.2°C 65% 3.4 mph W5.5 kmh W 4.5 mph7.2 kmh 30.51 in1033.2 mb 0.00 in0.0 mm 0.00 in0.0 mm 0.00 in0.0 mm
05:17 AM 14.2°F-9.9°C 4.6°F-15.2°C 65% 1.8 mph W2.9 kmh W 2.2 mph3.5 kmh 30.50 in1032.8 mb 0.00 in0.0 mm 0.00 in0.0 mm 0.00 in0.0 mm
05:16 AM 14.2°F-9.9°C 4.6°F-15.2°C 65% 1.3 mph W2.1 kmh W 2.2 mph3.5 kmh 30.50 in1032.8 mb 0.00 in0.0 mm 0.00 in0.0 mm 0.00 in0.0 mm
05:15 AM 14.2°F-9.9°C 4.6°F-15.2°C 65% 2.2 mph W3.5 kmh W 2.2 mph3.5 kmh 30.50 in1032.8 mb 0.00 in0.0 mm 0.00 in0.0 mm 0.00 in0.0 mm
05:14 AM 14.2°F-9.9°C 5.0°F-15.0°C 66% 2.2 mph W3.5 kmh W 3.4 mph5.5 kmh 30.49 in1032.5 mb 0.00 in0.0 mm 0.00 in0.0 mm 0.00 in0.0 mm
05:13 AM 14.2°F-9.9°C 5.0°F-15.0°C 66% 1.8 mph W2.9 kmh W 2.2 mph3.5 kmh 30.49 in1032.5 mb 0.00 in0.0 mm 0.00 in0.0 mm 0.00 in0.0 mm
05:12 AM 14.2°F-9.9°C 4.6°F-15.2°C 65% 0.9 mph W1.4 kmh W 1.1 mph1.8 kmh 30.49 in1032.5 mb 0.00 in0.0 mm 0.00 in0.0 mm 0.00 in0.0 mm
05:11 AM 14.2°F-9.9°C 4.6°F-15.2°C 65% 1.1 mph W1.8 kmh W 2.2 mph3.5 kmh 30.49 in1032.5 mb 0.00 in0.0 mm 0.00 in0.0 mm 0.00 in0.0 mm
05:10 AM 14.2°F-9.9°C 4.6°F-15.2°C 65% 2.0 mph W3.2 kmh W 2.2 mph3.5 kmh 30.48 in1032.2 mb 0.00 in0.0 mm 0.00 in0.0 mm 0.00 in0.0 mm
05:09 AM 14.2°F-9.9°C 4.6°F-15.2°C 65% 2.2 mph W3.5 kmh W 2.2 mph3.5 kmh 30.48 in1032.2 mb 0.00 in0.0 mm 0.00 in0.0 mm 0.00 in0.0 mm
05:08 AM 14.2°F-9.9°C 4.6°F-15.2°C 65% 2.2 mph W3.5 kmh W 2.2 mph3.5 kmh 30.48 in1032.2 mb 0.00 in0.0 mm 0.00 in0.0 mm 0.00 in0.0 mm
05:07 AM 14.2°F-9.9°C 5.0°F-15.0°C 66% 1.1 mph W1.8 kmh W 2.2 mph3.5 kmh 30.48 in1032.2 mb 0.00 in0.0 mm 0.00 in0.0 mm 0.00 in0.0 mm
05:06 AM 14.2°F-9.9°C 4.6°F-15.2°C 65% 1.8 mph W2.9 kmh W 3.4 mph5.5 kmh 30.48 in1032.2 mb 0.00 in0.0 mm 0.00 in0.0 mm 0.00 in0.0 mm
05:05 AM 14.2°F-9.9°C 4.6°F-15.2°C 65% Calm Calm -- 30.48 in1032.2 mb 0.00 in0.0 mm 0.00 in0.0 mm 0.00 in0.0 mm
05:04 AM 14.2°F-9.9°C 4.3°F-15.4°C 64% 2.0 mph W3.2 kmh W 2.2 mph3.5 kmh 30.48 in1032.2 mb 0.00 in0.0 mm 0.00 in0.0 mm 0.00 in0.0 mm
05:02 AM 14.4°F-9.8°C 4.5°F-15.3°C 64% 0.7 mph W1.1 kmh W 1.1 mph1.8 kmh 30.48 in1032.2 mb 0.00 in0.0 mm 0.00 in0.0 mm 0.00 in0.0 mm
05:01 AM 14.4°F-9.8°C 4.5°F-15.3°C 64% Calm Calm -- 30.48 in1032.2 mb 0.00 in0.0 mm 0.00 in0.0 mm 0.00 in0.0 mm
05:00 AM 14.4°F-9.8°C 4.5°F-15.3°C 64% 1.3 mph W2.1 kmh W 2.2 mph3.5 kmh 30.47 in1031.8 mb 0.00 in0.0 mm 0.00 in0.0 mm 0.00 in0.0 mm
04:59 AM 14.4°F-9.8°C 4.5°F-15.3°C 64% Calm Calm -- 30.47 in1031.8 mb 0.00 in0.0 mm 0.00 in0.0 mm 0.00 in0.0 mm
04:58 AM 14.4°F-9.8°C 4.1°F-15.5°C 63% 1.3 mph W2.1 kmh W 2.2 mph3.5 kmh 30.48 in1032.2 mb 0.00 in0.0 mm 0.00 in0.0 mm 0.00 in0.0 mm
04:57 AM 14.4°F-9.8°C 4.1°F-15.5°C 63% 1.8 mph W2.9 kmh W 2.2 mph3.5 kmh 30.48 in1032.2 mb 0.00 in0.0 mm 0.00 in0.0 mm 0.00 in0.0 mm
04:56 AM 14.4°F-9.8°C 4.1°F-15.5°C 63% 3.6 mph W5.8 kmh W 4.5 mph7.2 kmh 30.48 in1032.2 mb 0.00 in0.0 mm 0.00 in0.0 mm 0.00 in0.0 mm
04:55 AM 14.4°F-9.8°C 4.1°F-15.5°C 63% 3.6 mph W5.8 kmh W 4.5 mph7.2 kmh 30.48 in1032.2 mb 0.00 in0.0 mm 0.00 in0.0 mm 0.00 in0.0 mm
04:54 AM 14.4°F-9.8°C 4.1°F-15.5°C 63% 3.4 mph W5.5 kmh W 4.5 mph7.2 kmh 30.48 in1032.2 mb 0.00 in0.0 mm 0.00 in0.0 mm 0.00 in0.0 mm
04:53 AM 14.4°F-9.8°C 4.5°F-15.3°C 64% 3.4 mph WNW5.5 kmh WNW 5.8 mph9.3 kmh 30.47 in1031.8 mb 0.00 in0.0 mm 0.00 in0.0 mm 0.00 in0.0 mm
04:52 AM 14.4°F-9.8°C 4.5°F-15.3°C 64% 2.5 mph WSW4.0 kmh WSW 3.4 mph5.5 kmh 30.47 in1031.8 mb 0.00 in0.0 mm 0.00 in0.0 mm 0.00 in0.0 mm
04:51 AM 14.4°F-9.8°C 4.5°F-15.3°C 64% 1.8 mph W2.9 kmh W 2.2 mph3.5 kmh 30.48 in1032.2 mb 0.00 in0.0 mm 0.00 in0.0 mm 0.00 in0.0 mm
04:50 AM 14.4°F-9.8°C 4.5°F-15.3°C 64% 0.7 mph W1.1 kmh W 1.1 mph1.8 kmh 30.47 in1031.8 mb 0.00 in0.0 mm 0.00 in0.0 mm 0.00 in0.0 mm
04:49 AM 14.4°F-9.8°C 4.5°F-15.3°C 64% 1.3 mph W2.1 kmh W 2.2 mph3.5 kmh 30.46 in1031.5 mb 0.00 in0.0 mm 0.00 in0.0 mm 0.00 in0.0 mm
04:47 AM 14.4°F-9.8°C 4.1°F-15.5°C 63% 1.6 mph W2.6 kmh W 2.2 mph3.5 kmh 30.47 in1031.8 mb 0.00 in0.0 mm 0.00 in0.0 mm 0.00 in0.0 mm
04:46 AM 14.4°F-9.8°C 4.1°F-15.5°C 63% 2.7 mph W4.3 kmh W 4.5 mph7.2 kmh 30.46 in1031.5 mb 0.00 in0.0 mm 0.00 in0.0 mm 0.00 in0.0 mm
04:45 AM 14.4°F-9.8°C 4.5°F-15.3°C 64% 3.8 mph WNW6.1 kmh WNW 4.5 mph7.2 kmh 30.46 in1031.5 mb 0.00 in0.0 mm 0.00 in0.0 mm 0.00 in0.0 mm
04:44 AM 14.4°F-9.8°C 4.5°F-15.3°C 64% 0.7 mph W1.1 kmh W 1.1 mph1.8 kmh 30.46 in1031.5 mb 0.00 in0.0 mm 0.00 in0.0 mm 0.00 in0.0 mm
04:43 AM 14.4°F-9.8°C 4.5°F-15.3°C 64% 1.3 mph W2.1 kmh W 2.2 mph3.5 kmh 30.46 in1031.5 mb 0.00 in0.0 mm 0.00 in0.0 mm 0.00 in0.0 mm
04:42 AM 14.4°F-9.8°C 4.5°F-15.3°C 64% 0.4 mph W0.6 kmh W 1.1 mph1.8 kmh 30.46 in1031.5 mb 0.00 in0.0 mm 0.00 in0.0 mm 0.00 in0.0 mm
04:41 AM 14.4°F-9.8°C 4.1°F-15.5°C 63% 2.9 mph W4.7 kmh W 4.5 mph7.2 kmh 30.46 in1031.5 mb 0.00 in0.0 mm 0.00 in0.0 mm 0.00 in0.0 mm
04:40 AM 14.4°F-9.8°C 4.5°F-15.3°C 64% 3.4 mph W5.5 kmh W 4.5 mph7.2 kmh 30.46 in1031.5 mb 0.00 in0.0 mm 0.00 in0.0 mm 0.00 in0.0 mm
04:39 AM 14.4°F-9.8°C 4.5°F-15.3°C 64% 0.2 mph W0.3 kmh W 1.1 mph1.8 kmh 30.46 in1031.5 mb 0.00 in0.0 mm 0.00 in0.0 mm 0.00 in0.0 mm
04:38 AM 14.4°F-9.8°C 4.5°F-15.3°C 64% 2.9 mph W4.7 kmh W 3.4 mph5.5 kmh 30.46 in1031.5 mb 0.00 in0.0 mm 0.00 in0.0 mm 0.00 in0.0 mm
04:37 AM 14.4°F-9.8°C 4.5°F-15.3°C 64% 0.7 mph WNW1.1 kmh WNW 1.1 mph1.8 kmh 30.46 in1031.5 mb 0.00 in0.0 mm 0.00 in0.0 mm 0.00 in0.0 mm
04:36 AM 14.2°F-9.9°C 4.6°F-15.2°C 65% 1.1 mph W1.8 kmh W 1.1 mph1.8 kmh 30.46 in1031.5 mb 0.00 in0.0 mm 0.00 in0.0 mm 0.00 in0.0 mm
04:35 AM 14.2°F-9.9°C 4.6°F-15.2°C 65% 1.8 mph W2.9 kmh W 3.4 mph5.5 kmh 30.46 in1031.5 mb 0.00 in0.0 mm 0.00 in0.0 mm 0.00 in0.0 mm
04:34 AM 14.2°F-9.9°C 4.6°F-15.2°C 65% 2.9 mph W4.7 kmh W 4.5 mph7.2 kmh 30.45 in1031.2 mb 0.00 in0.0 mm 0.00 in0.0 mm 0.00 in0.0 mm
04:33 AM 14.2°F-9.9°C 4.6°F-15.2°C 65% 2.0 mph W3.2 kmh W 2.2 mph3.5 kmh 30.45 in1031.2 mb 0.00 in0.0 mm 0.00 in0.0 mm 0.00 in0.0 mm
04:32 AM 14.2°F-9.9°C 4.6°F-15.2°C 65% 2.2 mph W3.5 kmh W 3.4 mph5.5 kmh 30.45 in1031.2 mb 0.00 in0.0 mm 0.00 in0.0 mm 0.00 in0.0 mm
04:31 AM 14.2°F-9.9°C 4.6°F-15.2°C 65% 2.5 mph W4.0 kmh W 3.4 mph5.5 kmh 30.45 in1031.2 mb 0.00 in0.0 mm 0.00 in0.0 mm 0.00 in0.0 mm
04:30 AM 14.2°F-9.9°C 4.6°F-15.2°C 65% 1.8 mph W2.9 kmh W 2.2 mph3.5 kmh 30.45 in1031.2 mb 0.00 in0.0 mm 0.00 in0.0 mm 0.00 in0.0 mm
04:29 AM 14.2°F-9.9°C 4.6°F-15.2°C 65% 2.7 mph WSW4.3 kmh WSW 4.5 mph7.2 kmh 30.44 in1030.8 mb 0.00 in0.0 mm 0.00 in0.0 mm 0.00 in0.0 mm
04:28 AM 14.0°F-10.0°C 4.4°F-15.3°C 65% 1.8 mph W2.9 kmh W 3.4 mph5.5 kmh 30.45 in1031.2 mb 0.00 in0.0 mm 0.00 in0.0 mm 0.00 in0.0 mm
04:27 AM 14.2°F-9.9°C 4.6°F-15.2°C 65% 2.9 mph W4.7 kmh W 3.4 mph5.5 kmh 30.45 in1031.2 mb 0.00 in0.0 mm 0.00 in0.0 mm 0.00 in0.0 mm
04:25 AM 14.2°F-9.9°C 4.6°F-15.2°C 65% 1.3 mph W2.1 kmh W 2.2 mph3.5 kmh 30.45 in1031.2 mb 0.00 in0.0 mm 0.00 in0.0 mm 0.00 in0.0 mm
04:24 AM 14.2°F-9.9°C 4.6°F-15.2°C 65% 3.4 mph WNW5.5 kmh WNW 4.5 mph7.2 kmh 30.45 in1031.2 mb 0.00 in0.0 mm 0.00 in0.0 mm 0.00 in0.0 mm
04:23 AM 14.2°F-9.9°C 4.6°F-15.2°C 65% 2.0 mph W3.2 kmh W 3.4 mph5.5 kmh 30.44 in1030.8 mb 0.00 in0.0 mm 0.00 in0.0 mm 0.00 in0.0 mm
04:22 AM 14.2°F-9.9°C 4.6°F-15.2°C 65% 2.9 mph W4.7 kmh W 3.4 mph5.5 kmh 30.45 in1031.2 mb 0.00 in0.0 mm 0.00 in0.0 mm 0.00 in0.0 mm
04:21 AM 14.2°F-9.9°C 4.6°F-15.2°C 65% 3.8 mph W6.1 kmh W 4.5 mph7.2 kmh 30.45 in1031.2 mb 0.00 in0.0 mm 0.00 in0.0 mm 0.00 in0.0 mm
04:20 AM 14.0°F-10.0°C 4.4°F-15.3°C 65% 4.0 mph W6.4 kmh W 4.5 mph7.2 kmh 30.45 in1031.2 mb 0.00 in0.0 mm 0.00 in0.0 mm 0.00 in0.0 mm
04:18 AM 14.0°F-10.0°C 4.4°F-15.3°C 65% 1.8 mph W2.9 kmh W 2.2 mph3.5 kmh 30.44 in1030.8 mb 0.00 in0.0 mm 0.00 in0.0 mm 0.00 in0.0 mm
04:16 AM 14.0°F-10.0°C 4.4°F-15.3°C 65% 3.4 mph W5.5 kmh W 4.5 mph7.2 kmh 30.44 in1030.8 mb 0.00 in0.0 mm 0.00 in0.0 mm 0.00 in0.0 mm
04:15 AM 14.0°F-10.0°C 4.1°F-15.5°C 64% 1.1 mph W1.8 kmh W 2.2 mph3.5 kmh 30.44 in1030.8 mb 0.00 in0.0 mm 0.00 in0.0 mm 0.00 in0.0 mm
04:14 AM 14.0°F-10.0°C 4.1°F-15.5°C 64% 2.2 mph W3.5 kmh W 3.4 mph5.5 kmh 30.43 in1030.5 mb 0.00 in0.0 mm 0.00 in0.0 mm 0.00 in0.0 mm
04:13 AM 14.0°F-10.0°C 4.1°F-15.5°C 64% 2.2 mph W3.5 kmh W 2.2 mph3.5 kmh 30.43 in1030.5 mb 0.00 in0.0 mm 0.00 in0.0 mm 0.00 in0.0 mm
04:12 AM 14.0°F-10.0°C 4.1°F-15.5°C 64% 2.5 mph W4.0 kmh W 3.4 mph5.5 kmh 30.44 in1030.8 mb 0.00 in0.0 mm 0.00 in0.0 mm 0.00 in0.0 mm
04:11 AM 14.0°F-10.0°C 4.1°F-15.5°C 64% 2.5 mph WNW4.0 kmh WNW 3.4 mph5.5 kmh 30.43 in1030.5 mb 0.00 in0.0 mm 0.00 in0.0 mm 0.00 in0.0 mm
04:10 AM 14.0°F-10.0°C 4.1°F-15.5°C 64% 2.5 mph W4.0 kmh W 3.4 mph5.5 kmh 30.43 in1030.5 mb 0.00 in0.0 mm 0.00 in0.0 mm 0.00 in0.0 mm
04:09 AM 14.0°F-10.0°C 4.1°F-15.5°C 64% 0.7 mph WNW1.1 kmh WNW 1.1 mph1.8 kmh 30.43 in1030.5 mb 0.00 in0.0 mm 0.00 in0.0 mm 0.00 in0.0 mm
04:08 AM 14.0°F-10.0°C 4.1°F-15.5°C 64% 1.8 mph WNW2.9 kmh WNW 2.2 mph3.5 kmh 30.43 in1030.5 mb 0.00 in0.0 mm 0.00 in0.0 mm 0.00 in0.0 mm
04:07 AM 14.0°F-10.0°C 4.1°F-15.5°C 64% 1.1 mph WNW1.8 kmh WNW 2.2 mph3.5 kmh 30.43 in1030.5 mb 0.00 in0.0 mm 0.00 in0.0 mm 0.00 in0.0 mm
04:06 AM 14.0°F-10.0°C 4.1°F-15.5°C 64% Calm Calm -- 30.43 in1030.5 mb 0.00 in0.0 mm 0.00 in0.0 mm 0.00 in0.0 mm
04:05 AM 14.0°F-10.0°C 4.1°F-15.5°C 64% 1.3 mph WNW2.1 kmh WNW 2.2 mph3.5 kmh 30.43 in1030.5 mb 0.00 in0.0 mm 0.00 in0.0 mm 0.00 in0.0 mm
04:04 AM 14.0°F-10.0°C 4.1°F-15.5°C 64% 3.4 mph W5.5 kmh W 4.5 mph7.2 kmh 30.43 in1030.5 mb 0.00 in0.0 mm 0.00 in0.0 mm 0.00 in0.0 mm
04:03 AM 14.0°F-10.0°C 4.1°F-15.5°C 64% 2.0 mph W3.2 kmh W 2.2 mph3.5 kmh 30.42 in1030.1 mb 0.00 in0.0 mm 0.00 in0.0 mm 0.00 in0.0 mm
04:02 AM 14.0°F-10.0°C 4.4°F-15.3°C 65% 1.6 mph W2.6 kmh W 2.2 mph3.5 kmh 30.43 in1030.5 mb 0.00 in0.0 mm 0.00 in0.0 mm 0.00 in0.0 mm
04:01 AM 14.0°F-10.0°C 4.1°F-15.5°C 64% 0.7 mph W1.1 kmh W 2.2 mph3.5 kmh 30.42 in1030.1 mb 0.00 in0.0 mm 0.00 in0.0 mm 0.00 in0.0 mm
04:00 AM 14.0°F-10.0°C 4.1°F-15.5°C 64% 1.8 mph WNW2.9 kmh WNW 3.4 mph5.5 kmh 30.43 in1030.5 mb 0.00 in0.0 mm 0.00 in0.0 mm 0.00 in0.0 mm
03:59 AM 14.0°F-10.0°C 4.1°F-15.5°C 64% 2.2 mph WNW3.5 kmh WNW 3.4 mph5.5 kmh 30.43 in1030.5 mb 0.00 in0.0 mm 0.00 in0.0 mm 0.00 in0.0 mm
03:58 AM 14.0°F-10.0°C 4.4°F-15.3°C 65% 2.7 mph W4.3 kmh W 3.4 mph5.5 kmh 30.42 in1030.1 mb 0.00 in0.0 mm 0.00 in0.0 mm 0.00 in0.0 mm
03:57 AM 14.0°F-10.0°C 4.4°F-15.3°C 65% 0.9 mph W1.4 kmh W 1.1 mph1.8 kmh 30.42 in1030.1 mb 0.00 in0.0 mm 0.00 in0.0 mm 0.00 in0.0 mm
03:55 AM 13.8°F-10.1°C 4.2°F-15.4°C 65% 1.8 mph W2.9 kmh W 2.2 mph3.5 kmh 30.42 in1030.1 mb 0.00 in0.0 mm 0.00 in0.0 mm 0.00 in0.0 mm
03:54 AM 13.8°F-10.1°C 4.2°F-15.4°C 65% 0.9 mph WNW1.4 kmh WNW 1.1 mph1.8 kmh 30.42 in1030.1 mb 0.00 in0.0 mm 0.00 in0.0 mm 0.00 in0.0 mm
03:53 AM 14.0°F-10.0°C 4.4°F-15.3°C 65% Calm Calm -- 30.43 in1030.5 mb 0.00 in0.0 mm 0.00 in0.0 mm 0.00 in0.0 mm
03:52 AM 14.0°F-10.0°C 4.4°F-15.3°C 65% Calm Calm -- 30.42 in1030.1 mb 0.00 in0.0 mm 0.00 in0.0 mm 0.00 in0.0 mm
03:51 AM 13.8°F-10.1°C 4.2°F-15.4°C 65% 0.4 mph W0.6 kmh W 1.1 mph1.8 kmh 30.42 in1030.1 mb 0.00 in0.0 mm 0.00 in0.0 mm 0.00 in0.0 mm
03:50 AM 13.8°F-10.1°C 4.2°F-15.4°C 65% 1.3 mph W2.1 kmh W 2.2 mph3.5 kmh 30.42 in1030.1 mb 0.00 in0.0 mm 0.00 in0.0 mm 0.00 in0.0 mm
03:49 AM 13.8°F-10.1°C 3.9°F-15.6°C 64% 1.3 mph W2.1 kmh W 2.2 mph3.5 kmh 30.43 in1030.5 mb 0.00 in0.0 mm 0.00 in0.0 mm 0.00 in0.0 mm
03:48 AM 13.8°F-10.1°C 4.2°F-15.4°C 65% 3.6 mph W5.8 kmh W 4.5 mph7.2 kmh 30.43 in1030.5 mb 0.00 in0.0 mm 0.00 in0.0 mm 0.00 in0.0 mm
03:47 AM 13.8°F-10.1°C 4.2°F-15.4°C 65% 1.3 mph W2.1 kmh W 2.2 mph3.5 kmh 30.42 in1030.1 mb 0.00 in0.0 mm 0.00 in0.0 mm 0.00 in0.0 mm
03:46 AM 13.8°F-10.1°C 4.2°F-15.4°C 65% 0.9 mph W1.4 kmh W 1.1 mph1.8 kmh 30.42 in1030.1 mb 0.00 in0.0 mm 0.00 in0.0 mm 0.00 in0.0 mm
03:45 AM 13.8°F-10.1°C 4.2°F-15.4°C 65% 1.6 mph W2.6 kmh W 2.2 mph3.5 kmh 30.42 in1030.1 mb 0.00 in0.0 mm 0.00 in0.0 mm 0.00 in0.0 mm
03:44 AM 14.0°F-10.0°C 4.4°F-15.3°C 65% 1.8 mph W2.9 kmh W 2.2 mph3.5 kmh 30.42 in1030.1 mb 0.00 in0.0 mm 0.00 in0.0 mm 0.00 in0.0 mm
03:43 AM 14.0°F-10.0°C 4.4°F-15.3°C 65% 2.0 mph W3.2 kmh W 2.2 mph3.5 kmh 30.43 in1030.5 mb 0.00 in0.0 mm 0.00 in0.0 mm 0.00 in0.0 mm
03:42 AM 14.0°F-10.0°C 4.1°F-15.5°C 64% 0.9 mph W1.4 kmh W 1.1 mph1.8 kmh 30.42 in1030.1 mb 0.00 in0.0 mm 0.00 in0.0 mm 0.00 in0.0 mm
03:41 AM 14.0°F-10.0°C 4.1°F-15.5°C 64% 2.5 mph WNW4.0 kmh WNW 3.4 mph5.5 kmh 30.42 in1030.1 mb 0.00 in0.0 mm 0.00 in0.0 mm 0.00 in0.0 mm
03:40 AM 13.8°F-10.1°C 3.9°F-15.6°C 64% 3.8 mph WNW6.1 kmh WNW 4.5 mph7.2 kmh 30.42 in1030.1 mb 0.00 in0.0 mm 0.00 in0.0 mm 0.00 in0.0 mm
03:39 AM 13.8°F-10.1°C 4.2°F-15.4°C 65% 2.9 mph W4.7 kmh W 3.4 mph5.5 kmh 30.42 in1030.1 mb 0.00 in0.0 mm 0.00 in0.0 mm 0.00 in0.0 mm
03:38 AM 13.8°F-10.1°C 4.2°F-15.4°C 65% 2.5 mph W4.0 kmh W 3.4 mph5.5 kmh 30.42 in1030.1 mb 0.00 in0.0 mm 0.00 in0.0 mm 0.00 in0.0 mm
03:37 AM 13.8°F-10.1°C 4.2°F-15.4°C 65% 3.4 mph W5.5 kmh W 4.5 mph7.2 kmh 30.41 in1029.8 mb 0.00 in0.0 mm 0.00 in0.0 mm 0.00 in0.0 mm
03:36 AM 13.8°F-10.1°C 4.2°F-15.4°C 65% 0.4 mph W0.6 kmh W 1.1 mph1.8 kmh 30.42 in1030.1 mb 0.00 in0.0 mm 0.00 in0.0 mm 0.00 in0.0 mm
03:35 AM 13.8°F-10.1°C 4.2°F-15.4°C 65% 1.3 mph W2.1 kmh W 2.2 mph3.5 kmh 30.41 in1029.8 mb 0.00 in0.0 mm 0.00 in0.0 mm 0.00 in0.0 mm
03:34 AM 13.8°F-10.1°C 3.9°F-15.6°C 64% 1.8 mph W2.9 kmh W 2.2 mph3.5 kmh 30.42 in1030.1 mb 0.00 in0.0 mm 0.00 in0.0 mm 0.00 in0.0 mm
03:33 AM 13.8°F-10.1°C 4.2°F-15.4°C 65% 0.9 mph W1.4 kmh W 1.1 mph1.8 kmh 30.42 in1030.1 mb 0.00 in0.0 mm 0.00 in0.0 mm 0.00 in0.0 mm
03:32 AM 14.0°F-10.0°C 4.1°F-15.5°C 64% 1.1 mph W1.8 kmh W 1.1 mph1.8 kmh 30.41 in1029.8 mb 0.00 in0.0 mm 0.00 in0.0 mm 0.00 in0.0 mm
03:31 AM 14.0°F-10.0°C 4.1°F-15.5°C 64% 1.1 mph W1.8 kmh W 2.2 mph3.5 kmh 30.41 in1029.8 mb 0.00 in0.0 mm 0.00 in0.0 mm 0.00 in0.0 mm
03:30 AM 14.0°F-10.0°C 4.1°F-15.5°C 64% 0.7 mph W1.1 kmh W 1.1 mph1.8 kmh 30.41 in1029.8 mb 0.00 in0.0 mm 0.00 in0.0 mm 0.00 in0.0 mm
03:29 AM 14.0°F-10.0°C 3.8°F-15.7°C 63% 0.4 mph W0.6 kmh W 1.1 mph1.8 kmh 30.41 in1029.8 mb 0.00 in0.0 mm 0.00 in0.0 mm 0.00 in0.0 mm
03:28 AM 14.0°F-10.0°C 4.1°F-15.5°C 64% 1.6 mph W2.6 kmh W 2.2 mph3.5 kmh 30.42 in1030.1 mb 0.00 in0.0 mm 0.00 in0.0 mm 0.00 in0.0 mm
03:27 AM 14.0°F-10.0°C 4.1°F-15.5°C 64% 1.1 mph W1.8 kmh W 1.1 mph1.8 kmh 30.41 in1029.8 mb 0.00 in0.0 mm 0.00 in0.0 mm 0.00 in0.0 mm
03:26 AM 14.0°F-10.0°C 4.1°F-15.5°C 64% 3.4 mph W5.5 kmh W 4.5 mph7.2 kmh 30.41 in1029.8 mb 0.00 in0.0 mm 0.00 in0.0 mm 0.00 in0.0 mm
03:25 AM 14.0°F-10.0°C 4.1°F-15.5°C 64% 3.4 mph W5.5 kmh W 4.5 mph7.2 kmh 30.41 in1029.8 mb 0.00 in0.0 mm 0.00 in0.0 mm 0.00 in0.0 mm
03:24 AM 14.0°F-10.0°C 4.1°F-15.5°C 64% 0.9 mph W1.4 kmh W 1.1 mph1.8 kmh 30.41 in1029.8 mb 0.00 in0.0 mm 0.00 in0.0 mm 0.00 in0.0 mm
03:23 AM 14.0°F-10.0°C 4.1°F-15.5°C 64% Calm Calm -- 30.40 in1029.5 mb 0.00 in0.0 mm 0.00 in0.0 mm 0.00 in0.0 mm
03:21 AM 14.0°F-10.0°C 4.1°F-15.5°C 64% 0.9 mph W1.4 kmh W 1.1 mph1.8 kmh 30.41 in1029.8 mb 0.00 in0.0 mm 0.00 in0.0 mm 0.00 in0.0 mm
03:20 AM 14.0°F-10.0°C 4.1°F-15.5°C 64% 2.2 mph W3.5 kmh W 3.4 mph5.5 kmh 30.41 in1029.8 mb 0.00 in0.0 mm 0.00 in0.0 mm 0.00 in0.0 mm
03:19 AM 14.0°F-10.0°C 4.1°F-15.5°C 64% 0.7 mph W1.1 kmh W 1.1 mph1.8 kmh 30.41 in1029.8 mb 0.00 in0.0 mm 0.00 in0.0 mm 0.00 in0.0 mm
03:17 AM 14.0°F-10.0°C 4.1°F-15.5°C 64% 3.1 mph W5.0 kmh W 4.5 mph7.2 kmh 30.40 in1029.5 mb 0.00 in0.0 mm 0.00 in0.0 mm 0.00 in0.0 mm
03:16 AM 14.0°F-10.0°C 4.1°F-15.5°C 64% 2.5 mph W4.0 kmh W 3.4 mph5.5 kmh 30.40 in1029.5 mb 0.00 in0.0 mm 0.00 in0.0 mm 0.00 in0.0 mm
03:15 AM 14.0°F-10.0°C 4.4°F-15.3°C 65% 2.7 mph W4.3 kmh W 3.4 mph5.5 kmh 30.40 in1029.5 mb 0.00 in0.0 mm 0.00 in0.0 mm 0.00 in0.0 mm
03:13 AM 14.0°F-10.0°C 4.1°F-15.5°C 64% 2.5 mph W4.0 kmh W 3.4 mph5.5 kmh 30.40 in1029.5 mb 0.00 in0.0 mm 0.00 in0.0 mm 0.00 in0.0 mm
03:12 AM 14.0°F-10.0°C 4.4°F-15.3°C 65% 2.9 mph WNW4.7 kmh WNW 3.4 mph5.5 kmh 30.39 in1029.1 mb 0.00 in0.0 mm 0.00 in0.0 mm 0.00 in0.0 mm
03:11 AM 14.0°F-10.0°C 4.1°F-15.5°C 64% 2.5 mph WNW4.0 kmh WNW 3.4 mph5.5 kmh 30.40 in1029.5 mb 0.00 in0.0 mm 0.00 in0.0 mm 0.00 in0.0 mm
03:10 AM 14.0°F-10.0°C 4.1°F-15.5°C 64% 3.1 mph W5.0 kmh W 4.5 mph7.2 kmh 30.39 in1029.1 mb 0.00 in0.0 mm 0.00 in0.0 mm 0.00 in0.0 mm
03:08 AM 14.0°F-10.0°C 4.4°F-15.3°C 65% 2.0 mph W3.2 kmh W 2.2 mph3.5 kmh 30.39 in1029.1 mb 0.00 in0.0 mm 0.00 in0.0 mm 0.00 in0.0 mm
03:07 AM 14.0°F-10.0°C 4.4°F-15.3°C 65% 2.7 mph W4.3 kmh W 3.4 mph5.5 kmh 30.39 in1029.1 mb 0.00 in0.0 mm 0.00 in0.0 mm 0.00 in0.0 mm
03:06 AM 14.0°F-10.0°C 4.4°F-15.3°C 65% 1.8 mph W2.9 kmh W 2.2 mph3.5 kmh 30.39 in1029.1 mb 0.00 in0.0 mm 0.00 in0.0 mm 0.00 in0.0 mm
03:05 AM 14.0°F-10.0°C 4.1°F-15.5°C 64% 3.4 mph W5.5 kmh W 4.5 mph7.2 kmh 30.39 in1029.1 mb 0.00 in0.0 mm 0.00 in0.0 mm 0.00 in0.0 mm
03:04 AM 14.0°F-10.0°C 4.1°F-15.5°C 64% 2.9 mph W4.7 kmh W 4.5 mph7.2 kmh 30.39 in1029.1 mb 0.00 in0.0 mm 0.00 in0.0 mm 0.00 in0.0 mm
03:03 AM 14.0°F-10.0°C 4.1°F-15.5°C 64% 1.6 mph W2.6 kmh W 2.2 mph3.5 kmh 30.39 in1029.1 mb 0.00 in0.0 mm 0.00 in0.0 mm 0.00 in0.0 mm
03:02 AM 14.0°F-10.0°C 4.1°F-15.5°C 64% 0.9 mph W1.4 kmh W 1.1 mph1.8 kmh 30.40 in1029.5 mb 0.00 in0.0 mm 0.00 in0.0 mm 0.00 in0.0 mm
03:01 AM 14.0°F-10.0°C 4.1°F-15.5°C 64% 0.7 mph W1.1 kmh W 1.1 mph1.8 kmh 30.39 in1029.1 mb 0.00 in0.0 mm 0.00 in0.0 mm 0.00 in0.0 mm
03:00 AM 14.0°F-10.0°C 4.1°F-15.5°C 64% 0.4 mph W0.6 kmh W 1.1 mph1.8 kmh 30.40 in1029.5 mb 0.00 in0.0 mm 0.00 in0.0 mm 0.00 in0.0 mm
02:59 AM 14.0°F-10.0°C 4.1°F-15.5°C 64% 1.6 mph W2.6 kmh W 2.2 mph3.5 kmh 30.39 in1029.1 mb 0.00 in0.0 mm 0.00 in0.0 mm 0.00 in0.0 mm
02:58 AM 14.0°F-10.0°C 4.1°F-15.5°C 64% 0.9 mph W1.4 kmh W 2.2 mph3.5 kmh 30.39 in1029.1 mb 0.00 in0.0 mm 0.00 in0.0 mm 0.00 in0.0 mm
02:57 AM 14.2°F-9.9°C 4.3°F-15.4°C 64% 1.6 mph WNW2.6 kmh WNW 2.2 mph3.5 kmh 30.39 in1029.1 mb 0.00 in0.0 mm 0.00 in0.0 mm 0.00 in0.0 mm
02:56 AM 14.2°F-9.9°C 4.3°F-15.4°C 64% 2.5 mph W4.0 kmh W 3.4 mph5.5 kmh 30.40 in1029.5 mb 0.00 in0.0 mm 0.00 in0.0 mm 0.00 in0.0 mm
02:55 AM 14.2°F-9.9°C 4.3°F-15.4°C 64% 2.5 mph W4.0 kmh W 3.4 mph5.5 kmh 30.39 in1029.1 mb 0.00 in0.0 mm 0.00 in0.0 mm 0.00 in0.0 mm
02:54 AM 14.2°F-9.9°C 4.3°F-15.4°C 64% 0.9 mph W1.4 kmh W 2.2 mph3.5 kmh 30.39 in1029.1 mb 0.00 in0.0 mm 0.00 in0.0 mm 0.00 in0.0 mm
02:53 AM 14.2°F-9.9°C 4.3°F-15.4°C 64% 0.9 mph W1.4 kmh W 2.2 mph3.5 kmh 30.40 in1029.5 mb 0.00 in0.0 mm 0.00 in0.0 mm 0.00 in0.0 mm
02:52 AM 14.2°F-9.9°C 3.9°F-15.6°C 63% Calm Calm -- 30.39 in1029.1 mb 0.00 in0.0 mm 0.00 in0.0 mm 0.00 in0.0 mm
02:51 AM 14.2°F-9.9°C 3.9°F-15.6°C 63% 1.8 mph WNW2.9 kmh WNW 2.2 mph3.5 kmh 30.39 in1029.1 mb 0.00 in0.0 mm 0.00 in0.0 mm 0.00 in0.0 mm
02:50 AM 14.2°F-9.9°C 3.9°F-15.6°C 63% 1.8 mph W2.9 kmh W 2.2 mph3.5 kmh 30.38 in1028.8 mb 0.00 in0.0 mm 0.00 in0.0 mm 0.00 in0.0 mm
02:49 AM 14.2°F-9.9°C 4.3°F-15.4°C 64% 4.0 mph W6.4 kmh W 5.8 mph9.3 kmh 30.39 in1029.1 mb 0.00 in0.0 mm 0.00 in0.0 mm 0.00 in0.0 mm
02:48 AM 14.2°F-9.9°C 3.9°F-15.6°C 63% 0.7 mph W1.1 kmh W 1.1 mph1.8 kmh 30.39 in1029.1 mb 0.00 in0.0 mm 0.00 in0.0 mm 0.00 in0.0 mm
02:47 AM 14.4°F-9.8°C 4.1°F-15.5°C 63% 1.6 mph W2.6 kmh W 2.2 mph3.5 kmh 30.39 in1029.1 mb 0.00 in0.0 mm 0.00 in0.0 mm 0.00 in0.0 mm
02:46 AM 14.4°F-9.8°C 4.1°F-15.5°C 63% 1.3 mph W2.1 kmh W 2.2 mph3.5 kmh 30.38 in1028.8 mb 0.00 in0.0 mm 0.00 in0.0 mm 0.00 in0.0 mm
02:45 AM 14.4°F-9.8°C 3.8°F-15.7°C 62% 0.4 mph W0.6 kmh W 1.1 mph1.8 kmh 30.39 in1029.1 mb 0.00 in0.0 mm 0.00 in0.0 mm 0.00 in0.0 mm
02:44 AM 14.4°F-9.8°C 3.8°F-15.7°C 62% 2.5 mph W4.0 kmh W 3.4 mph5.5 kmh 30.38 in1028.8 mb 0.00 in0.0 mm 0.00 in0.0 mm 0.00 in0.0 mm
02:43 AM 14.4°F-9.8°C 3.8°F-15.7°C 62% 2.5 mph W4.0 kmh W 3.4 mph5.5 kmh 30.38 in1028.8 mb 0.00 in0.0 mm 0.00 in0.0 mm 0.00 in0.0 mm
02:42 AM 14.2°F-9.9°C 3.6°F-15.8°C 62% 2.9 mph W4.7 kmh W 3.4 mph5.5 kmh 30.38 in1028.8 mb 0.00 in0.0 mm 0.00 in0.0 mm 0.00 in0.0 mm
02:41 AM 14.2°F-9.9°C 3.6°F-15.8°C 62% 2.9 mph W4.7 kmh W 4.5 mph7.2 kmh 30.38 in1028.8 mb 0.00 in0.0 mm 0.00 in0.0 mm 0.00 in0.0 mm
02:40 AM 14.2°F-9.9°C 3.6°F-15.8°C 62% Calm Calm -- 30.38 in1028.8 mb 0.00 in0.0 mm 0.00 in0.0 mm 0.00 in0.0 mm
02:39 AM 14.4°F-9.8°C 4.1°F-15.5°C 63% 1.3 mph W2.1 kmh W 2.2 mph3.5 kmh 30.38 in1028.8 mb 0.00 in0.0 mm 0.00 in0.0 mm 0.00 in0.0 mm
02:38 AM 14.4°F-9.8°C 4.1°F-15.5°C 63% 1.3 mph W2.1 kmh W 3.4 mph5.5 kmh 30.38 in1028.8 mb 0.00 in0.0 mm 0.00 in0.0 mm 0.00 in0.0 mm
02:37 AM 14.4°F-9.8°C 3.8°F-15.7°C 62% 2.2 mph W3.5 kmh W 2.2 mph3.5 kmh 30.39 in1029.1 mb 0.00 in0.0 mm 0.00 in0.0 mm 0.00 in0.0 mm
02:36 AM 14.4°F-9.8°C 3.8°F-15.7°C 62% 3.4 mph W5.5 kmh W 4.5 mph7.2 kmh 30.38 in1028.8 mb 0.00 in0.0 mm 0.00 in0.0 mm 0.00 in0.0 mm
02:35 AM 14.4°F-9.8°C 3.8°F-15.7°C 62% 0.9 mph W1.4 kmh W 1.1 mph1.8 kmh 30.38 in1028.8 mb 0.00 in0.0 mm 0.00 in0.0 mm 0.00 in0.0 mm
02:34 AM 14.4°F-9.8°C 3.8°F-15.7°C 62% 1.1 mph WNW1.8 kmh WNW 2.2 mph3.5 kmh 30.37 in1028.4 mb 0.00 in0.0 mm 0.00 in0.0 mm 0.00 in0.0 mm
02:32 AM 14.4°F-9.8°C 3.8°F-15.7°C 62% 3.1 mph W5.0 kmh W 4.5 mph7.2 kmh 30.37 in1028.4 mb 0.00 in0.0 mm 0.00 in0.0 mm 0.00 in0.0 mm
02:31 AM 14.4°F-9.8°C 3.8°F-15.7°C 62% 3.8 mph W6.1 kmh W 4.5 mph7.2 kmh 30.37 in1028.4 mb 0.00 in0.0 mm 0.00 in0.0 mm 0.00 in0.0 mm
02:30 AM 14.5°F-9.7°C 3.9°F-15.6°C 62% 3.6 mph WNW5.8 kmh WNW 4.5 mph7.2 kmh 30.37 in1028.4 mb 0.00 in0.0 mm 0.00 in0.0 mm 0.00 in0.0 mm
02:29 AM 14.5°F-9.7°C 3.5°F-15.8°C 61% 2.2 mph W3.5 kmh W 2.2 mph3.5 kmh 30.38 in1028.8 mb 0.00 in0.0 mm 0.00 in0.0 mm 0.00 in0.0 mm
02:28 AM 14.5°F-9.7°C 3.5°F-15.8°C 61% 2.5 mph W4.0 kmh W 3.4 mph5.5 kmh 30.38 in1028.8 mb 0.00 in0.0 mm 0.00 in0.0 mm 0.00 in0.0 mm
02:26 AM 14.5°F-9.7°C 3.5°F-15.8°C 61% 2.5 mph W4.0 kmh W 3.4 mph5.5 kmh 30.37 in1028.4 mb 0.00 in0.0 mm 0.00 in0.0 mm 0.00 in0.0 mm
02:25 AM 14.4°F-9.8°C 3.8°F-15.7°C 62% 1.1 mph W1.8 kmh W 1.1 mph1.8 kmh 30.38 in1028.8 mb 0.00 in0.0 mm 0.00 in0.0 mm 0.00 in0.0 mm
02:24 AM 14.4°F-9.8°C 3.4°F-15.9°C 61% 3.8 mph SW6.1 kmh SW 5.8 mph9.3 kmh 30.37 in1028.4 mb 0.00 in0.0 mm 0.00 in0.0 mm 0.00 in0.0 mm
02:23 AM 14.4°F-9.8°C 3.4°F-15.9°C 61% 2.5 mph W4.0 kmh W 3.4 mph5.5 kmh 30.38 in1028.8 mb 0.00 in0.0 mm 0.00 in0.0 mm 0.00 in0.0 mm
02:22 AM 14.4°F-9.8°C 3.4°F-15.9°C 61% 2.5 mph W4.0 kmh W 4.5 mph7.2 kmh 30.38 in1028.8 mb 0.00 in0.0 mm 0.00 in0.0 mm 0.00 in0.0 mm
02:21 AM 14.4°F-9.8°C 3.4°F-15.9°C 61% 3.4 mph W5.5 kmh W 4.5 mph7.2 kmh 30.37 in1028.4 mb 0.00 in0.0 mm 0.00 in0.0 mm 0.00 in0.0 mm
02:20 AM 14.4°F-9.8°C 3.4°F-15.9°C 61% 2.2 mph W3.5 kmh W 3.4 mph5.5 kmh 30.37 in1028.4 mb 0.00 in0.0 mm 0.00 in0.0 mm 0.00 in0.0 mm
02:19 AM 14.5°F-9.7°C 3.5°F-15.8°C 61% 4.0 mph W6.4 kmh W 4.5 mph7.2 kmh 30.36 in1028.1 mb 0.00 in0.0 mm 0.00 in0.0 mm 0.00 in0.0 mm
02:18 AM 14.5°F-9.7°C 3.2°F-16.0°C 60% 3.4 mph W5.5 kmh W 4.5 mph7.2 kmh 30.35 in1027.8 mb 0.00 in0.0 mm 0.00 in0.0 mm 0.00 in0.0 mm
02:17 AM 14.5°F-9.7°C 3.5°F-15.8°C 61% 3.8 mph W6.1 kmh W 5.8 mph9.3 kmh 30.36 in1028.1 mb 0.00 in0.0 mm 0.00 in0.0 mm 0.00 in0.0 mm
02:16 AM 14.5°F-9.7°C 3.5°F-15.8°C 61% 2.5 mph W4.0 kmh W 3.4 mph5.5 kmh 30.36 in1028.1 mb 0.00 in0.0 mm 0.00 in0.0 mm 0.00 in0.0 mm
02:15 AM 14.5°F-9.7°C 3.5°F-15.8°C 61% 2.5 mph W4.0 kmh W 4.5 mph7.2 kmh 30.36 in1028.1 mb 0.00 in0.0 mm 0.00 in0.0 mm 0.00 in0.0 mm
02:14 AM 14.5°F-9.7°C 3.2°F-16.0°C 60% 3.4 mph W5.5 kmh W 5.8 mph9.3 kmh 30.36 in1028.1 mb 0.00 in0.0 mm 0.00 in0.0 mm 0.00 in0.0 mm
02:13 AM 14.5°F-9.7°C 3.5°F-15.8°C 61% 3.4 mph WSW5.5 kmh WSW 5.8 mph9.3 kmh 30.36 in1028.1 mb 0.00 in0.0 mm 0.00 in0.0 mm 0.00 in0.0 mm
02:12 AM 14.5°F-9.7°C 3.5°F-15.8°C 61% 2.9 mph W4.7 kmh W 3.4 mph5.5 kmh 30.36 in1028.1 mb 0.00 in0.0 mm 0.00 in0.0 mm 0.00 in0.0 mm
02:11 AM 14.5°F-9.7°C 3.5°F-15.8°C 61% 4.9 mph WSW7.9 kmh WSW 6.9 mph11.1 kmh 30.35 in1027.8 mb 0.00 in0.0 mm 0.00 in0.0 mm 0.00 in0.0 mm
02:10 AM 14.5°F-9.7°C 3.5°F-15.8°C 61% 6.9 mph WNW11.1 kmh WNW 8.1 mph13.0 kmh 30.35 in1027.8 mb 0.00 in0.0 mm 0.00 in0.0 mm 0.00 in0.0 mm
02:09 AM 14.4°F-9.8°C 3.4°F-15.9°C 61% 2.9 mph W4.7 kmh W 4.5 mph7.2 kmh 30.35 in1027.8 mb 0.00 in0.0 mm 0.00 in0.0 mm 0.00 in0.0 mm
02:08 AM 14.4°F-9.8°C 3.8°F-15.7°C 62% 1.1 mph WNW1.8 kmh WNW 2.2 mph3.5 kmh 30.35 in1027.8 mb 0.00 in0.0 mm 0.00 in0.0 mm 0.00 in0.0 mm
02:07 AM 14.4°F-9.8°C 3.8°F-15.7°C 62% 1.1 mph WNW1.8 kmh WNW 3.4 mph5.5 kmh 30.36 in1028.1 mb 0.00 in0.0 mm 0.00 in0.0 mm 0.00 in0.0 mm
02:06 AM 14.2°F-9.9°C 3.6°F-15.8°C 62% 4.9 mph W7.9 kmh W 5.8 mph9.3 kmh 30.36 in1028.1 mb 0.00 in0.0 mm 0.00 in0.0 mm 0.00 in0.0 mm
02:04 AM 14.2°F-9.9°C 3.3°F-15.9°C 61% 8.7 mph W14.0 kmh W 12.5 mph20.1 kmh 30.36 in1028.1 mb 0.00 in0.0 mm 0.00 in0.0 mm 0.00 in0.0 mm
02:03 AM 14.2°F-9.9°C 3.6°F-15.8°C 62% 2.2 mph WNW3.5 kmh WNW 3.4 mph5.5 kmh 30.35 in1027.8 mb 0.00 in0.0 mm 0.00 in0.0 mm 0.00 in0.0 mm
02:02 AM 14.2°F-9.9°C 3.6°F-15.8°C 62% 2.9 mph W4.7 kmh W 3.4 mph5.5 kmh 30.35 in1027.8 mb 0.00 in0.0 mm 0.00 in0.0 mm 0.00 in0.0 mm
02:01 AM 14.2°F-9.9°C 3.6°F-15.8°C 62% 1.8 mph W2.9 kmh W 2.2 mph3.5 kmh 30.35 in1027.8 mb 0.00 in0.0 mm 0.00 in0.0 mm 0.00 in0.0 mm
02:00 AM 14.2°F-9.9°C 3.6°F-15.8°C 62% 3.8 mph W6.1 kmh W 4.5 mph7.2 kmh 30.35 in1027.8 mb 0.00 in0.0 mm 0.00 in0.0 mm 0.00 in0.0 mm
01:59 AM 14.2°F-9.9°C 3.6°F-15.8°C 62% 1.8 mph W2.9 kmh W 2.2 mph3.5 kmh 30.35 in1027.8 mb 0.00 in0.0 mm 0.00 in0.0 mm 0.00 in0.0 mm
01:58 AM 14.2°F-9.9°C 3.6°F-15.8°C 62% 1.3 mph WNW2.1 kmh WNW 2.2 mph3.5 kmh 30.35 in1027.8 mb 0.00 in0.0 mm 0.00 in0.0 mm 0.00 in0.0 mm
01:57 AM 14.2°F-9.9°C 3.3°F-15.9°C 61% 0.2 mph W0.3 kmh W 1.1 mph1.8 kmh 30.35 in1027.8 mb 0.00 in0.0 mm 0.00 in0.0 mm 0.00 in0.0 mm
01:56 AM 14.2°F-9.9°C 3.6°F-15.8°C 62% 2.5 mph W4.0 kmh W 5.8 mph9.3 kmh 30.35 in1027.8 mb 0.00 in0.0 mm 0.00 in0.0 mm 0.00 in0.0 mm
01:55 AM 14.0°F-10.0°C 3.8°F-15.7°C 63% 3.4 mph WSW5.5 kmh WSW 5.8 mph9.3 kmh 30.36 in1028.1 mb 0.00 in0.0 mm 0.00 in0.0 mm 0.00 in0.0 mm
01:54 AM 14.0°F-10.0°C 3.8°F-15.7°C 63% 2.9 mph SE4.7 kmh SE 5.8 mph9.3 kmh 30.36 in1028.1 mb 0.00 in0.0 mm 0.00 in0.0 mm 0.00 in0.0 mm
01:53 AM 14.0°F-10.0°C 3.4°F-15.9°C 62% 1.3 mph W2.1 kmh W 2.2 mph3.5 kmh 30.35 in1027.8 mb 0.00 in0.0 mm 0.00 in0.0 mm 0.00 in0.0 mm
01:52 AM 13.8°F-10.1°C 3.6°F-15.8°C 63% 2.9 mph WNW4.7 kmh WNW 3.4 mph5.5 kmh 30.35 in1027.8 mb 0.00 in0.0 mm 0.00 in0.0 mm 0.00 in0.0 mm
01:51 AM 13.8°F-10.1°C 3.6°F-15.8°C 63% 1.1 mph W1.8 kmh W 3.4 mph5.5 kmh 30.35 in1027.8 mb 0.00 in0.0 mm 0.00 in0.0 mm 0.00 in0.0 mm
01:50 AM 13.8°F-10.1°C 3.6°F-15.8°C 63% 2.2 mph WSW3.5 kmh WSW 3.4 mph5.5 kmh 30.35 in1027.8 mb 0.00 in0.0 mm 0.00 in0.0 mm 0.00 in0.0 mm
01:49 AM 13.8°F-10.1°C 3.9°F-15.6°C 64% 3.8 mph W6.1 kmh W 4.5 mph7.2 kmh 30.35 in1027.8 mb 0.00 in0.0 mm 0.00 in0.0 mm 0.00 in0.0 mm
01:48 AM 13.6°F-10.2°C 4.1°F-15.5°C 65% 3.4 mph WNW5.5 kmh WNW 5.8 mph9.3 kmh 30.34 in1027.4 mb 0.00 in0.0 mm 0.00 in0.0 mm 0.00 in0.0 mm
01:46 AM 13.6°F-10.2°C 4.1°F-15.5°C 65% 0.7 mph W1.1 kmh W 1.1 mph1.8 kmh 30.35 in1027.8 mb 0.00 in0.0 mm 0.00 in0.0 mm 0.00 in0.0 mm
01:45 AM 13.6°F-10.2°C 4.1°F-15.5°C 65% Calm Calm -- 30.35 in1027.8 mb 0.00 in0.0 mm 0.00 in0.0 mm 0.00 in0.0 mm
01:44 AM 13.5°F-10.3°C 4.0°F-15.6°C 65% 1.8 mph W2.9 kmh W 2.2 mph3.5 kmh 30.35 in1027.8 mb 0.00 in0.0 mm 0.00 in0.0 mm 0.00 in0.0 mm
01:43 AM 13.5°F-10.3°C 4.0°F-15.6°C 65% 1.3 mph WNW2.1 kmh WNW 2.2 mph3.5 kmh 30.35 in1027.8 mb 0.00 in0.0 mm 0.00 in0.0 mm 0.00 in0.0 mm
01:42 AM 13.5°F-10.3°C 4.0°F-15.6°C 65% 1.6 mph W2.6 kmh W 3.4 mph5.5 kmh 30.35 in1027.8 mb 0.00 in0.0 mm 0.00 in0.0 mm 0.00 in0.0 mm
01:41 AM 13.5°F-10.3°C 4.0°F-15.6°C 65% 4.0 mph W6.4 kmh W 5.8 mph9.3 kmh 30.35 in1027.8 mb 0.00 in0.0 mm 0.00 in0.0 mm 0.00 in0.0 mm
01:40 AM 13.5°F-10.3°C 4.0°F-15.6°C 65% 2.0 mph W3.2 kmh W 3.4 mph5.5 kmh 30.35 in1027.8 mb 0.00 in0.0 mm 0.00 in0.0 mm 0.00 in0.0 mm
01:39 AM 13.5°F-10.3°C 4.0°F-15.6°C 65% 1.6 mph W2.6 kmh W 2.2 mph3.5 kmh 30.35 in1027.8 mb 0.00 in0.0 mm 0.00 in0.0 mm 0.00 in0.0 mm
01:38 AM 13.5°F-10.3°C 4.0°F-15.6°C 65% 1.8 mph W2.9 kmh W 3.4 mph5.5 kmh 30.35 in1027.8 mb 0.00 in0.0 mm 0.00 in0.0 mm 0.00 in0.0 mm
01:37 AM 13.5°F-10.3°C 4.0°F-15.6°C 65% 4.3 mph W6.9 kmh W 5.8 mph9.3 kmh 30.35 in1027.8 mb 0.00 in0.0 mm 0.00 in0.0 mm 0.00 in0.0 mm
01:36 AM 13.5°F-10.3°C 4.0°F-15.6°C 65% 1.3 mph W2.1 kmh W 2.2 mph3.5 kmh 30.35 in1027.8 mb 0.00 in0.0 mm 0.00 in0.0 mm 0.00 in0.0 mm
01:35 AM 13.3°F-10.4°C 3.8°F-15.7°C 65% 4.5 mph W7.2 kmh W 5.8 mph9.3 kmh 30.35 in1027.8 mb 0.00 in0.0 mm 0.00 in0.0 mm 0.00 in0.0 mm
01:34 AM 13.3°F-10.4°C 3.8°F-15.7°C 65% 3.8 mph W6.1 kmh W 4.5 mph7.2 kmh 30.35 in1027.8 mb 0.00 in0.0 mm 0.00 in0.0 mm 0.00 in0.0 mm
01:33 AM 13.3°F-10.4°C 3.8°F-15.7°C 65% 2.2 mph W3.5 kmh W 3.4 mph5.5 kmh 30.35 in1027.8 mb 0.00 in0.0 mm 0.00 in0.0 mm 0.00 in0.0 mm
01:32 AM 13.3°F-10.4°C 3.8°F-15.7°C 65% 3.4 mph WNW5.5 kmh WNW 4.5 mph7.2 kmh 30.35 in1027.8 mb 0.00 in0.0 mm 0.00 in0.0 mm 0.00 in0.0 mm
01:31 AM 13.3°F-10.4°C 3.8°F-15.7°C 65% 3.6 mph W5.8 kmh W 4.5 mph7.2 kmh 30.35 in1027.8 mb 0.00 in0.0 mm 0.00 in0.0 mm 0.00 in0.0 mm
01:30 AM 13.3°F-10.4°C 3.8°F-15.7°C 65% 3.4 mph WNW5.5 kmh WNW 4.5 mph7.2 kmh 30.35 in1027.8 mb 0.00 in0.0 mm 0.00 in0.0 mm 0.00 in0.0 mm
01:29 AM 13.3°F-10.4°C 3.8°F-15.7°C 65% 1.3 mph W2.1 kmh W 2.2 mph3.5 kmh 30.35 in1027.8 mb 0.00 in0.0 mm 0.00 in0.0 mm 0.00 in0.0 mm
01:28 AM 13.3°F-10.4°C 3.8°F-15.7°C 65% 2.5 mph W4.0 kmh W 3.4 mph5.5 kmh 30.35 in1027.8 mb 0.00 in0.0 mm 0.00 in0.0 mm 0.00 in0.0 mm
01:27 AM 13.3°F-10.4°C 3.8°F-15.7°C 65% 1.8 mph W2.9 kmh W 3.4 mph5.5 kmh 30.35 in1027.8 mb 0.00 in0.0 mm 0.00 in0.0 mm 0.00 in0.0 mm
01:26 AM 13.3°F-10.4°C 3.8°F-15.7°C 65% 2.9 mph WNW4.7 kmh WNW 3.4 mph5.5 kmh 30.36 in1028.1 mb 0.00 in0.0 mm 0.00 in0.0 mm 0.00 in0.0 mm
01:25 AM 13.3°F-10.4°C 3.8°F-15.7°C 65% 1.1 mph WSW1.8 kmh WSW 1.1 mph1.8 kmh 30.35 in1027.8 mb 0.00 in0.0 mm 0.00 in0.0 mm 0.00 in0.0 mm
01:24 AM 13.3°F-10.4°C 3.8°F-15.7°C 65% 0.9 mph WSW1.4 kmh WSW 1.1 mph1.8 kmh 30.35 in1027.8 mb 0.00 in0.0 mm 0.00 in0.0 mm 0.00 in0.0 mm
01:23 AM 13.3°F-10.4°C 3.8°F-15.7°C 65% 2.0 mph WSW3.2 kmh WSW 3.4 mph5.5 kmh 30.36 in1028.1 mb 0.00 in0.0 mm 0.00 in0.0 mm 0.00 in0.0 mm
01:22 AM 13.1°F-10.5°C 3.6°F-15.8°C 65% 2.5 mph W4.0 kmh W 3.4 mph5.5 kmh 30.35 in1027.8 mb 0.00 in0.0 mm 0.00 in0.0 mm 0.00 in0.0 mm
01:21 AM 13.1°F-10.5°C 3.6°F-15.8°C 65% 3.8 mph W6.1 kmh W 4.5 mph7.2 kmh 30.35 in1027.8 mb 0.00 in0.0 mm 0.00 in0.0 mm 0.00 in0.0 mm
01:20 AM 13.1°F-10.5°C 3.6°F-15.8°C 65% 3.4 mph W5.5 kmh W 4.5 mph7.2 kmh 30.35 in1027.8 mb 0.00 in0.0 mm 0.00 in0.0 mm 0.00 in0.0 mm
01:19 AM 13.1°F-10.5°C 3.6°F-15.8°C 65% 3.6 mph WSW5.8 kmh WSW 4.5 mph7.2 kmh 30.35 in1027.8 mb 0.00 in0.0 mm 0.00 in0.0 mm 0.00 in0.0 mm
01:18 AM 13.1°F-10.5°C 3.6°F-15.8°C 65% 2.5 mph WNW4.0 kmh WNW 4.5 mph7.2 kmh 30.35 in1027.8 mb 0.00 in0.0 mm 0.00 in0.0 mm 0.00 in0.0 mm
01:16 AM 13.1°F-10.5°C 3.9°F-15.6°C 66% 2.0 mph W3.2 kmh W 4.5 mph7.2 kmh 30.35 in1027.8 mb 0.00 in0.0 mm 0.00 in0.0 mm 0.00 in0.0 mm
01:15 AM 13.1°F-10.5°C 3.6°F-15.8°C 65% 2.5 mph WNW4.0 kmh WNW 3.4 mph5.5 kmh 30.35 in1027.8 mb 0.00 in0.0 mm 0.00 in0.0 mm 0.00 in0.0 mm
01:14 AM 13.1°F-10.5°C 3.6°F-15.8°C 65% 2.2 mph W3.5 kmh W 3.4 mph5.5 kmh 30.35 in1027.8 mb 0.00 in0.0 mm 0.00 in0.0 mm 0.00 in0.0 mm
01:13 AM 13.1°F-10.5°C 3.6°F-15.8°C 65% 2.2 mph W3.5 kmh W 2.2 mph3.5 kmh 30.35 in1027.8 mb 0.00 in0.0 mm 0.00 in0.0 mm 0.00 in0.0 mm
01:12 AM 13.1°F-10.5°C 3.6°F-15.8°C 65% 0.9 mph W1.4 kmh W 2.2 mph3.5 kmh 30.35 in1027.8 mb 0.00 in0.0 mm 0.00 in0.0 mm 0.00 in0.0 mm
01:11 AM 13.1°F-10.5°C 3.6°F-15.8°C 65% 1.1 mph W1.8 kmh W 2.2 mph3.5 kmh 30.35 in1027.8 mb 0.00 in0.0 mm 0.00 in0.0 mm 0.00 in0.0 mm
01:10 AM 13.1°F-10.5°C 3.6°F-15.8°C 65% 2.9 mph WNW4.7 kmh WNW 4.5 mph7.2 kmh 30.35 in1027.8 mb 0.00 in0.0 mm 0.00 in0.0 mm 0.00 in0.0 mm
01:09 AM 13.1°F-10.5°C 3.6°F-15.8°C 65% 2.5 mph WNW4.0 kmh WNW 3.4 mph5.5 kmh 30.35 in1027.8 mb 0.00 in0.0 mm 0.00 in0.0 mm 0.00 in0.0 mm
01:08 AM 13.1°F-10.5°C 3.6°F-15.8°C 65% 3.1 mph W5.0 kmh W 3.4 mph5.5 kmh 30.35 in1027.8 mb 0.00 in0.0 mm 0.00 in0.0 mm 0.00 in0.0 mm
01:07 AM 13.1°F-10.5°C 3.2°F-16.0°C 64% 1.8 mph W2.9 kmh W 2.2 mph3.5 kmh 30.35 in1027.8 mb 0.00 in0.0 mm 0.00 in0.0 mm 0.00 in0.0 mm
01:06 AM 13.1°F-10.5°C 3.2°F-16.0°C 64% 5.1 mph W8.2 kmh W 5.8 mph9.3 kmh 30.35 in1027.8 mb 0.00 in0.0 mm 0.00 in0.0 mm 0.00 in0.0 mm
01:05 AM 13.1°F-10.5°C 3.2°F-16.0°C 64% 3.4 mph W5.5 kmh W 4.5 mph7.2 kmh 30.35 in1027.8 mb 0.00 in0.0 mm 0.00 in0.0 mm 0.00 in0.0 mm
01:04 AM 13.1°F-10.5°C 3.6°F-15.8°C 65% 5.8 mph W9.3 kmh W 8.1 mph13.0 kmh 30.36 in1028.1 mb 0.00 in0.0 mm 0.00 in0.0 mm 0.00 in0.0 mm
01:03 AM 13.1°F-10.5°C 3.6°F-15.8°C 65% 5.1 mph W8.2 kmh W 6.9 mph11.1 kmh 30.35 in1027.8 mb 0.00 in0.0 mm 0.00 in0.0 mm 0.00 in0.0 mm
01:01 AM 13.1°F-10.5°C 3.2°F-16.0°C 64% 2.5 mph W4.0 kmh W 3.4 mph5.5 kmh 30.35 in1027.8 mb 0.00 in0.0 mm 0.00 in0.0 mm 0.00 in0.0 mm
01:00 AM 13.1°F-10.5°C 3.2°F-16.0°C 64% 1.6 mph W2.6 kmh W 2.2 mph3.5 kmh 30.35 in1027.8 mb 0.00 in0.0 mm 0.00 in0.0 mm 0.00 in0.0 mm
12:59 AM 13.1°F-10.5°C 3.2°F-16.0°C 64% 2.9 mph W4.7 kmh W 4.5 mph7.2 kmh 30.35 in1027.8 mb 0.00 in0.0 mm 0.00 in0.0 mm 0.00 in0.0 mm
12:58 AM 13.1°F-10.5°C 3.2°F-16.0°C 64% 3.4 mph W5.5 kmh W 5.8 mph9.3 kmh 30.35 in1027.8 mb 0.00 in0.0 mm 0.00 in0.0 mm 0.00 in0.0 mm
12:57 AM 13.1°F-10.5°C 3.2°F-16.0°C 64% 2.7 mph W4.3 kmh W 5.8 mph9.3 kmh 30.36 in1028.1 mb 0.00 in0.0 mm 0.00 in0.0 mm 0.00 in0.0 mm
12:56 AM 12.9°F-10.6°C 3.1°F-16.1°C 64% 2.9 mph W4.7 kmh W 4.5 mph7.2 kmh 30.35 in1027.8 mb 0.00 in0.0 mm 0.00 in0.0 mm 0.00 in0.0 mm
12:55 AM 12.9°F-10.6°C 3.4°F-15.9°C 65% 2.5 mph W4.0 kmh W 3.4 mph5.5 kmh 30.35 in1027.8 mb 0.00 in0.0 mm 0.00 in0.0 mm 0.00 in0.0 mm
12:54 AM 12.9°F-10.6°C 3.1°F-16.1°C 64% 2.5 mph W4.0 kmh W 3.4 mph5.5 kmh 30.35 in1027.8 mb 0.00 in0.0 mm 0.00 in0.0 mm 0.00 in0.0 mm
12:53 AM 13.1°F-10.5°C 3.2°F-16.0°C 64% 1.3 mph W2.1 kmh W 2.2 mph3.5 kmh 30.35 in1027.8 mb 0.00 in0.0 mm 0.00 in0.0 mm 0.00 in0.0 mm
12:52 AM 13.1°F-10.5°C 3.2°F-16.0°C 64% 3.8 mph W6.1 kmh W 5.8 mph9.3 kmh 30.35 in1027.8 mb 0.00 in0.0 mm 0.00 in0.0 mm 0.00 in0.0 mm
12:51 AM 13.1°F-10.5°C 3.2°F-16.0°C 64% 2.5 mph W4.0 kmh W 3.4 mph5.5 kmh 30.35 in1027.8 mb 0.00 in0.0 mm 0.00 in0.0 mm 0.00 in0.0 mm
12:50 AM 13.1°F-10.5°C 3.2°F-16.0°C 64% 1.8 mph W2.9 kmh W 2.2 mph3.5 kmh 30.35 in1027.8 mb 0.00 in0.0 mm 0.00 in0.0 mm 0.00 in0.0 mm
12:49 AM 13.1°F-10.5°C 3.2°F-16.0°C 64% 1.6 mph W2.6 kmh W 2.2 mph3.5 kmh 30.35 in1027.8 mb 0.00 in0.0 mm 0.00 in0.0 mm 0.00 in0.0 mm
12:48 AM 13.1°F-10.5°C 3.2°F-16.0°C 64% 4.7 mph W7.6 kmh W 5.8 mph9.3 kmh 30.35 in1027.8 mb 0.00 in0.0 mm 0.00 in0.0 mm 0.00 in0.0 mm
12:47 AM 13.1°F-10.5°C 3.2°F-16.0°C 64% 4.5 mph W7.2 kmh W 5.8 mph9.3 kmh 30.35 in1027.8 mb 0.00 in0.0 mm 0.00 in0.0 mm 0.00 in0.0 mm
12:46 AM 13.1°F-10.5°C 3.2°F-16.0°C 64% 4.3 mph W6.9 kmh W 5.8 mph9.3 kmh 30.35 in1027.8 mb 0.00 in0.0 mm 0.00 in0.0 mm 0.00 in0.0 mm
12:45 AM 13.1°F-10.5°C 3.2°F-16.0°C 64% 3.4 mph W5.5 kmh W 5.8 mph9.3 kmh 30.35 in1027.8 mb 0.00 in0.0 mm 0.00 in0.0 mm 0.00 in0.0 mm
12:43 AM 13.1°F-10.5°C 3.2°F-16.0°C 64% 2.0 mph W3.2 kmh W 3.4 mph5.5 kmh 30.35 in1027.8 mb 0.00 in0.0 mm 0.00 in0.0 mm 0.00 in0.0 mm
12:41 AM 13.1°F-10.5°C 3.2°F-16.0°C 64% 1.8 mph WNW2.9 kmh WNW 3.4 mph5.5 kmh 30.35 in1027.8 mb 0.00 in0.0 mm 0.00 in0.0 mm 0.00 in0.0 mm
12:40 AM 13.1°F-10.5°C 3.2°F-16.0°C 64% 5.4 mph W8.7 kmh W 6.9 mph11.1 kmh 30.35 in1027.8 mb 0.00 in0.0 mm 0.00 in0.0 mm 0.00 in0.0 mm
12:39 AM 13.1°F-10.5°C 3.2°F-16.0°C 64% 2.9 mph W4.7 kmh W 4.5 mph7.2 kmh 30.36 in1028.1 mb 0.00 in0.0 mm 0.00 in0.0 mm 0.00 in0.0 mm
12:38 AM 13.1°F-10.5°C 3.2°F-16.0°C 64% 3.4 mph W5.5 kmh W 4.5 mph7.2 kmh 30.35 in1027.8 mb 0.00 in0.0 mm 0.00 in0.0 mm 0.00 in0.0 mm
12:37 AM 13.1°F-10.5°C 2.9°F-16.2°C 63% 2.0 mph W3.2 kmh W 3.4 mph5.5 kmh 30.36 in1028.1 mb 0.00 in0.0 mm 0.00 in0.0 mm 0.00 in0.0 mm
12:36 AM 13.1°F-10.5°C 2.9°F-16.2°C 63% 3.4 mph W5.5 kmh W 4.5 mph7.2 kmh 30.35 in1027.8 mb 0.00 in0.0 mm 0.00 in0.0 mm 0.00 in0.0 mm
12:34 AM 13.1°F-10.5°C 2.9°F-16.2°C 63% 2.2 mph W3.5 kmh W 3.4 mph5.5 kmh 30.36 in1028.1 mb 0.00 in0.0 mm 0.00 in0.0 mm 0.00 in0.0 mm
12:33 AM 13.1°F-10.5°C 2.9°F-16.2°C 63% 3.6 mph W5.8 kmh W 5.8 mph9.3 kmh 30.35 in1027.8 mb 0.00 in0.0 mm 0.00 in0.0 mm 0.00 in0.0 mm
12:32 AM 12.9°F-10.6°C 3.1°F-16.1°C 64% 5.8 mph W9.3 kmh W 8.1 mph13.0 kmh 30.35 in1027.8 mb 0.00 in0.0 mm 0.00 in0.0 mm 0.00 in0.0 mm
12:31 AM 12.9°F-10.6°C 3.1°F-16.1°C 64% 1.8 mph W2.9 kmh W 2.2 mph3.5 kmh 30.36 in1028.1 mb 0.00 in0.0 mm 0.00 in0.0 mm 0.00 in0.0 mm
12:30 AM 13.1°F-10.5°C 3.2°F-16.0°C 64% 2.5 mph W4.0 kmh W 3.4 mph5.5 kmh 30.35 in1027.8 mb 0.00 in0.0 mm 0.00 in0.0 mm 0.00 in0.0 mm
12:29 AM 12.9°F-10.6°C 2.7°F-16.3°C 63% 3.4 mph W5.5 kmh W 3.4 mph5.5 kmh 30.35 in1027.8 mb 0.00 in0.0 mm 0.00 in0.0 mm 0.00 in0.0 mm
12:28 AM 12.9°F-10.6°C 2.7°F-16.3°C 63% 4.0 mph WNW6.4 kmh WNW 4.5 mph7.2 kmh 30.36 in1028.1 mb 0.00 in0.0 mm 0.00 in0.0 mm 0.00 in0.0 mm
12:27 AM 12.9°F-10.6°C 2.7°F-16.3°C 63% 2.5 mph WNW4.0 kmh WNW 3.4 mph5.5 kmh 30.35 in1027.8 mb 0.00 in0.0 mm 0.00 in0.0 mm 0.00 in0.0 mm
12:26 AM 12.9°F-10.6°C 3.1°F-16.1°C 64% 1.8 mph W2.9 kmh W 2.2 mph3.5 kmh 30.36 in1028.1 mb 0.00 in0.0 mm 0.00 in0.0 mm 0.00 in0.0 mm
12:25 AM 12.9°F-10.6°C 3.1°F-16.1°C 64% 3.6 mph W5.8 kmh W 4.5 mph7.2 kmh 30.35 in1027.8 mb 0.00 in0.0 mm 0.00 in0.0 mm 0.00 in0.0 mm
12:24 AM 12.9°F-10.6°C 3.1°F-16.1°C 64% 2.0 mph W3.2 kmh W 2.2 mph3.5 kmh 30.36 in1028.1 mb 0.00 in0.0 mm 0.00 in0.0 mm 0.00 in0.0 mm
12:23 AM 12.9°F-10.6°C 3.1°F-16.1°C 64% 1.8 mph WNW2.9 kmh WNW 2.2 mph3.5 kmh 30.35 in1027.8 mb 0.00 in0.0 mm 0.00 in0.0 mm 0.00 in0.0 mm
12:22 AM 12.9°F-10.6°C 3.1°F-16.1°C 64% 1.3 mph WNW2.1 kmh WNW 2.2 mph3.5 kmh 30.35 in1027.8 mb 0.00 in0.0 mm 0.00 in0.0 mm 0.00 in0.0 mm
12:21 AM 12.7°F-10.7°C 2.9°F-16.2°C 64% 0.7 mph WNW1.1 kmh WNW 1.1 mph1.8 kmh 30.35 in1027.8 mb 0.00 in0.0 mm 0.00 in0.0 mm 0.00 in0.0 mm
12:20 AM 12.7°F-10.7°C 2.9°F-16.2°C 64% 2.7 mph W4.3 kmh W 5.8 mph9.3 kmh 30.35 in1027.8 mb 0.00 in0.0 mm 0.00 in0.0 mm 0.00 in0.0 mm
12:19 AM 12.7°F-10.7°C 2.9°F-16.2°C 64% 3.4 mph WNW5.5 kmh WNW 4.5 mph7.2 kmh 30.35 in1027.8 mb 0.00 in0.0 mm 0.00 in0.0 mm 0.00 in0.0 mm
12:18 AM 12.7°F-10.7°C 2.9°F-16.2°C 64% 3.4 mph SW5.5 kmh SW 3.4 mph5.5 kmh 30.35 in1027.8 mb 0.00 in0.0 mm 0.00 in0.0 mm 0.00 in0.0 mm
12:17 AM 12.7°F-10.7°C 2.9°F-16.2°C 64% 2.9 mph W4.7 kmh W 3.4 mph5.5 kmh 30.35 in1027.8 mb 0.00 in0.0 mm 0.00 in0.0 mm 0.00 in0.0 mm
12:15 AM 12.7°F-10.7°C 2.9°F-16.2°C 64% 1.6 mph W2.6 kmh W 3.4 mph5.5 kmh 30.35 in1027.8 mb 0.00 in0.0 mm 0.00 in0.0 mm 0.00 in0.0 mm
12:14 AM 12.7°F-10.7°C 2.9°F-16.2°C 64% 2.9 mph W4.7 kmh W 4.5 mph7.2 kmh 30.35 in1027.8 mb 0.00 in0.0 mm 0.00 in0.0 mm 0.00 in0.0 mm
12:13 AM 12.7°F-10.7°C 2.9°F-16.2°C 64% 2.7 mph W4.3 kmh W 3.4 mph5.5 kmh 30.35 in1027.8 mb 0.00 in0.0 mm 0.00 in0.0 mm 0.00 in0.0 mm
12:12 AM 12.7°F-10.7°C 2.9°F-16.2°C 64% 2.2 mph W3.5 kmh W 2.2 mph3.5 kmh 30.35 in1027.8 mb 0.00 in0.0 mm 0.00 in0.0 mm 0.00 in0.0 mm
12:11 AM 12.7°F-10.7°C 2.9°F-16.2°C 64% 0.2 mph W0.3 kmh W 1.1 mph1.8 kmh 30.35 in1027.8 mb 0.00 in0.0 mm 0.00 in0.0 mm 0.00 in0.0 mm
12:10 AM 12.7°F-10.7°C 2.9°F-16.2°C 64% 2.2 mph W3.5 kmh W 3.4 mph5.5 kmh 30.35 in1027.8 mb 0.00 in0.0 mm 0.00 in0.0 mm 0.00 in0.0 mm
12:08 AM 12.7°F-10.7°C 2.5°F-16.4°C 63% 4.0 mph W6.4 kmh W 4.5 mph7.2 kmh 30.35 in1027.8 mb 0.00 in0.0 mm 0.00 in0.0 mm 0.00 in0.0 mm
12:07 AM 12.7°F-10.7°C 2.5°F-16.4°C 63% 4.5 mph W7.2 kmh W 5.8 mph9.3 kmh 30.35 in1027.8 mb 0.00 in0.0 mm 0.00 in0.0 mm 0.00 in0.0 mm
12:06 AM 12.7°F-10.7°C 2.9°F-16.2°C 64% 1.6 mph W2.6 kmh W 2.2 mph3.5 kmh 30.35 in1027.8 mb 0.00 in0.0 mm 0.00 in0.0 mm 0.00 in0.0 mm
12:05 AM 12.7°F-10.7°C 2.5°F-16.4°C 63% 1.3 mph W2.1 kmh W 2.2 mph3.5 kmh 30.34 in1027.4 mb 0.00 in0.0 mm 0.00 in0.0 mm 0.00 in0.0 mm
12:04 AM 12.7°F-10.7°C 2.9°F-16.2°C 64% 2.2 mph W3.5 kmh W 2.2 mph3.5 kmh 30.35 in1027.8 mb 0.00 in0.0 mm 0.00 in0.0 mm 0.00 in0.0 mm
12:03 AM 12.7°F-10.7°C 2.9°F-16.2°C 64% 0.9 mph W1.4 kmh W 2.2 mph3.5 kmh 30.35 in1027.8 mb 0.00 in0.0 mm 0.00 in0.0 mm 0.00 in0.0 mm
12:02 AM 12.7°F-10.7°C 2.5°F-16.4°C 63% 2.2 mph W3.5 kmh W 2.2 mph3.5 kmh 30.34 in1027.4 mb 0.00 in0.0 mm 0.00 in0.0 mm 0.00 in0.0 mm
12:01 AM 12.7°F-10.7°C 2.5°F-16.4°C 63% 3.4 mph W5.5 kmh W 4.5 mph7.2 kmh 30.35 in1027.8 mb 0.00 in0.0 mm 0.00 in0.0 mm 0.00 in0.0 mm
12:00 AM 12.7°F-10.7°C 2.5°F-16.4°C 63% 1.3 mph WNW2.1 kmh WNW 2.2 mph3.5 kmh 30.35 in1027.8 mb 0.00 in0.0 mm 0.00 in0.0 mm 0.00 in0.0 mm